<?xml version="1.0" encoding="UTF-8" standalone="no" ?>
<gpx xmlns="http://www.topografix.com/GPX/1/1" xmlns:xsi="http://www.w3.org/2001/XMLSchema-instance" xsi:schemaLocation="http://www.topografix.com/GPX/1/1 http://www.topografix.com/GPX/1/1/gpx.xsd" version="1.1" creator="VisuGPX - https://www.visugpx.com">
  <metadata>
    <name>Test</name>
    <desc><![CDATA[randonnée organisé par le club de crest le 17 mars 2012]]></desc>
  </metadata>
  <trk>
    <name><![CDATA[Nouveau parcours]]></name>
    <trkseg>
      <trkpt lat="44.72455" lon="5.02332">
        <ele>203.3</ele>
        <time>2012-03-17T12:55:38Z</time>
      </trkpt>
      <trkpt lat="44.72425" lon="5.02345">
        <ele>195.9</ele>
        <time>2012-03-17T12:55:41Z</time>
      </trkpt>
      <trkpt lat="44.72443" lon="5.02328">
        <ele>182.2</ele>
        <time>2012-03-17T12:56:00Z</time>
      </trkpt>
      <trkpt lat="44.72473" lon="5.02377">
        <ele>171.2</ele>
        <time>2012-03-17T12:56:16Z</time>
      </trkpt>
      <trkpt lat="44.72486" lon="5.02395">
        <ele>171.2</ele>
        <time>2012-03-17T12:56:22Z</time>
      </trkpt>
      <trkpt lat="44.72504" lon="5.02398">
        <ele>171.2</ele>
        <time>2012-03-17T12:56:26Z</time>
      </trkpt>
      <trkpt lat="44.72519" lon="5.02386">
        <ele>171.2</ele>
        <time>2012-03-17T12:56:33Z</time>
      </trkpt>
      <trkpt lat="44.72555" lon="5.02424">
        <ele>171.2</ele>
        <time>2012-03-17T12:56:45Z</time>
      </trkpt>
      <trkpt lat="44.72583" lon="5.02375">
        <ele>183.1</ele>
        <time>2012-03-17T12:56:58Z</time>
      </trkpt>
      <trkpt lat="44.72607" lon="5.02316">
        <ele>183.1</ele>
        <time>2012-03-17T12:57:09Z</time>
      </trkpt>
      <trkpt lat="44.7263" lon="5.02258">
        <ele>183.1</ele>
        <time>2012-03-17T12:57:20Z</time>
      </trkpt>
      <trkpt lat="44.72658" lon="5.02204">
        <ele>183.1</ele>
        <time>2012-03-17T12:57:30Z</time>
      </trkpt>
      <trkpt lat="44.72679" lon="5.02146">
        <ele>183.1</ele>
        <time>2012-03-17T12:57:42Z</time>
      </trkpt>
      <trkpt lat="44.72683" lon="5.02122">
        <ele>183.1</ele>
        <time>2012-03-17T12:57:48Z</time>
      </trkpt>
      <trkpt lat="44.72729" lon="5.02139">
        <ele>183.1</ele>
        <time>2012-03-17T12:58:01Z</time>
      </trkpt>
      <trkpt lat="44.7275" lon="5.02151">
        <ele>183.1</ele>
        <time>2012-03-17T12:58:06Z</time>
      </trkpt>
      <trkpt lat="44.72753" lon="5.02163">
        <ele>183.1</ele>
        <time>2012-03-17T12:58:08Z</time>
      </trkpt>
      <trkpt lat="44.72742" lon="5.02226">
        <ele>183.1</ele>
        <time>2012-03-17T12:58:17Z</time>
      </trkpt>
      <trkpt lat="44.72731" lon="5.02293">
        <ele>183.1</ele>
        <time>2012-03-17T12:58:26Z</time>
      </trkpt>
      <trkpt lat="44.72718" lon="5.02355">
        <ele>183.1</ele>
        <time>2012-03-17T12:58:35Z</time>
      </trkpt>
      <trkpt lat="44.7271" lon="5.0242">
        <ele>183.1</ele>
        <time>2012-03-17T12:58:46Z</time>
      </trkpt>
      <trkpt lat="44.72702" lon="5.02484">
        <ele>183.1</ele>
        <time>2012-03-17T12:58:55Z</time>
      </trkpt>
      <trkpt lat="44.7269" lon="5.0255">
        <ele>183.1</ele>
        <time>2012-03-17T12:59:04Z</time>
      </trkpt>
      <trkpt lat="44.72681" lon="5.02617">
        <ele>183.1</ele>
        <time>2012-03-17T12:59:14Z</time>
      </trkpt>
      <trkpt lat="44.72678" lon="5.02649">
        <ele>183.1</ele>
        <time>2012-03-17T12:59:21Z</time>
      </trkpt>
      <trkpt lat="44.72706" lon="5.027">
        <ele>183.1</ele>
        <time>2012-03-17T12:59:37Z</time>
      </trkpt>
      <trkpt lat="44.72737" lon="5.0275">
        <ele>183.1</ele>
        <time>2012-03-17T12:59:55Z</time>
      </trkpt>
      <trkpt lat="44.72767" lon="5.02799">
        <ele>183.1</ele>
        <time>2012-03-17T13:00:07Z</time>
      </trkpt>
      <trkpt lat="44.72796" lon="5.02848">
        <ele>183.1</ele>
        <time>2012-03-17T13:00:19Z</time>
      </trkpt>
      <trkpt lat="44.72799" lon="5.02853">
        <ele>183.1</ele>
        <time>2012-03-17T13:00:21Z</time>
      </trkpt>
      <trkpt lat="44.728" lon="5.02851">
        <ele>183.1</ele>
        <time>2012-03-17T13:00:30Z</time>
      </trkpt>
      <trkpt lat="44.7283" lon="5.02905">
        <ele>183.1</ele>
        <time>2012-03-17T13:00:46Z</time>
      </trkpt>
      <trkpt lat="44.72856" lon="5.0296">
        <ele>193.8</ele>
        <time>2012-03-17T13:01:00Z</time>
      </trkpt>
      <trkpt lat="44.7287" lon="5.03022">
        <ele>186.3</ele>
        <time>2012-03-17T13:01:12Z</time>
      </trkpt>
      <trkpt lat="44.72877" lon="5.03087">
        <ele>186.3</ele>
        <time>2012-03-17T13:01:24Z</time>
      </trkpt>
      <trkpt lat="44.72882" lon="5.0315">
        <ele>197</ele>
        <time>2012-03-17T13:01:36Z</time>
      </trkpt>
      <trkpt lat="44.72891" lon="5.03213">
        <ele>197</ele>
        <time>2012-03-17T13:01:48Z</time>
      </trkpt>
      <trkpt lat="44.72898" lon="5.0328">
        <ele>197</ele>
        <time>2012-03-17T13:02:02Z</time>
      </trkpt>
      <trkpt lat="44.72905" lon="5.03343">
        <ele>197</ele>
        <time>2012-03-17T13:02:17Z</time>
      </trkpt>
      <trkpt lat="44.72908" lon="5.03407">
        <ele>209.3</ele>
        <time>2012-03-17T13:02:34Z</time>
      </trkpt>
      <trkpt lat="44.72905" lon="5.0347">
        <ele>199.2</ele>
        <time>2012-03-17T13:02:50Z</time>
      </trkpt>
      <trkpt lat="44.72894" lon="5.03535">
        <ele>215.5</ele>
        <time>2012-03-17T13:03:08Z</time>
      </trkpt>
      <trkpt lat="44.72881" lon="5.03598">
        <ele>221.8</ele>
        <time>2012-03-17T13:03:24Z</time>
      </trkpt>
      <trkpt lat="44.72873" lon="5.03661">
        <ele>235.1</ele>
        <time>2012-03-17T13:03:40Z</time>
      </trkpt>
      <trkpt lat="44.72861" lon="5.03724">
        <ele>233.4</ele>
        <time>2012-03-17T13:03:54Z</time>
      </trkpt>
      <trkpt lat="44.72847" lon="5.03791">
        <ele>224.7</ele>
        <time>2012-03-17T13:04:06Z</time>
      </trkpt>
      <trkpt lat="44.72836" lon="5.03856">
        <ele>224.7</ele>
        <time>2012-03-17T13:04:14Z</time>
      </trkpt>
      <trkpt lat="44.72839" lon="5.03919">
        <ele>224.7</ele>
        <time>2012-03-17T13:04:21Z</time>
      </trkpt>
      <trkpt lat="44.72854" lon="5.03968">
        <ele>224.7</ele>
        <time>2012-03-17T13:04:26Z</time>
      </trkpt>
      <trkpt lat="44.72889" lon="5.04014">
        <ele>220.7</ele>
        <time>2012-03-17T13:04:32Z</time>
      </trkpt>
      <trkpt lat="44.72927" lon="5.04063">
        <ele>212.8</ele>
        <time>2012-03-17T13:04:38Z</time>
      </trkpt>
      <trkpt lat="44.72976" lon="5.04082">
        <ele>208.9</ele>
        <time>2012-03-17T13:04:44Z</time>
      </trkpt>
      <trkpt lat="44.73023" lon="5.04096">
        <ele>204.4</ele>
        <time>2012-03-17T13:04:51Z</time>
      </trkpt>
      <trkpt lat="44.73069" lon="5.04118">
        <ele>203.7</ele>
        <time>2012-03-17T13:05:00Z</time>
      </trkpt>
      <trkpt lat="44.7311" lon="5.04144">
        <ele>203.7</ele>
        <time>2012-03-17T13:05:09Z</time>
      </trkpt>
      <trkpt lat="44.73149" lon="5.04177">
        <ele>215.1</ele>
        <time>2012-03-17T13:05:20Z</time>
      </trkpt>
      <trkpt lat="44.73189" lon="5.04212">
        <ele>215.1</ele>
        <time>2012-03-17T13:05:36Z</time>
      </trkpt>
      <trkpt lat="44.73227" lon="5.04258">
        <ele>224.3</ele>
        <time>2012-03-17T13:05:52Z</time>
      </trkpt>
      <trkpt lat="44.73255" lon="5.04321">
        <ele>231.4</ele>
        <time>2012-03-17T13:06:10Z</time>
      </trkpt>
      <trkpt lat="44.73281" lon="5.0438">
        <ele>231.4</ele>
        <time>2012-03-17T13:06:26Z</time>
      </trkpt>
      <trkpt lat="44.7331" lon="5.04428">
        <ele>231.4</ele>
        <time>2012-03-17T13:06:47Z</time>
      </trkpt>
      <trkpt lat="44.73343" lon="5.04477">
        <ele>231.4</ele>
        <time>2012-03-17T13:07:13Z</time>
      </trkpt>
      <trkpt lat="44.7337" lon="5.04527">
        <ele>248.3</ele>
        <time>2012-03-17T13:07:38Z</time>
      </trkpt>
      <trkpt lat="44.73384" lon="5.04588">
        <ele>259.1</ele>
        <time>2012-03-17T13:08:06Z</time>
      </trkpt>
      <trkpt lat="44.73388" lon="5.04594">
        <ele>259.1</ele>
        <time>2012-03-17T13:08:09Z</time>
      </trkpt>
      <trkpt lat="44.73396" lon="5.04587">
        <ele>259.1</ele>
        <time>2012-03-17T13:08:17Z</time>
      </trkpt>
      <trkpt lat="44.73398" lon="5.0457">
        <ele>259.1</ele>
        <time>2012-03-17T13:08:26Z</time>
      </trkpt>
      <trkpt lat="44.73416" lon="5.04606">
        <ele>263.8</ele>
        <time>2012-03-17T13:08:47Z</time>
      </trkpt>
      <trkpt lat="44.73425" lon="5.04615">
        <ele>270.4</ele>
        <time>2012-03-17T13:08:54Z</time>
      </trkpt>
      <trkpt lat="44.73438" lon="5.04624">
        <ele>270.4</ele>
        <time>2012-03-17T13:09:03Z</time>
      </trkpt>
      <trkpt lat="44.73475" lon="5.04668">
        <ele>280.7</ele>
        <time>2012-03-17T13:09:32Z</time>
      </trkpt>
      <trkpt lat="44.73513" lon="5.04702">
        <ele>280.7</ele>
        <time>2012-03-17T13:09:56Z</time>
      </trkpt>
      <trkpt lat="44.73549" lon="5.04741">
        <ele>280.7</ele>
        <time>2012-03-17T13:10:19Z</time>
      </trkpt>
      <trkpt lat="44.73588" lon="5.04776">
        <ele>286.8</ele>
        <time>2012-03-17T13:10:42Z</time>
      </trkpt>
      <trkpt lat="44.73629" lon="5.04805">
        <ele>292.9</ele>
        <time>2012-03-17T13:11:03Z</time>
      </trkpt>
      <trkpt lat="44.73673" lon="5.04821">
        <ele>292.9</ele>
        <time>2012-03-17T13:11:24Z</time>
      </trkpt>
      <trkpt lat="44.73719" lon="5.04834">
        <ele>307.4</ele>
        <time>2012-03-17T13:11:47Z</time>
      </trkpt>
      <trkpt lat="44.73766" lon="5.04845">
        <ele>307.4</ele>
        <time>2012-03-17T13:12:11Z</time>
      </trkpt>
      <trkpt lat="44.73811" lon="5.04856">
        <ele>319</ele>
        <time>2012-03-17T13:12:33Z</time>
      </trkpt>
      <trkpt lat="44.73857" lon="5.04842">
        <ele>319</ele>
        <time>2012-03-17T13:13:00Z</time>
      </trkpt>
      <trkpt lat="44.73903" lon="5.04856">
        <ele>319</ele>
        <time>2012-03-17T13:13:17Z</time>
      </trkpt>
      <trkpt lat="44.7395" lon="5.04862">
        <ele>321.1</ele>
        <time>2012-03-17T13:13:34Z</time>
      </trkpt>
      <trkpt lat="44.73998" lon="5.04856">
        <ele>329.5</ele>
        <time>2012-03-17T13:13:46Z</time>
      </trkpt>
      <trkpt lat="44.74045" lon="5.0486">
        <ele>330.9</ele>
        <time>2012-03-17T13:13:58Z</time>
      </trkpt>
      <trkpt lat="44.74092" lon="5.04853">
        <ele>330.9</ele>
        <time>2012-03-17T13:14:51Z</time>
      </trkpt>
      <trkpt lat="44.74135" lon="5.04828">
        <ele>330.9</ele>
        <time>2012-03-17T13:15:14Z</time>
      </trkpt>
      <trkpt lat="44.74177" lon="5.04794">
        <ele>330.9</ele>
        <time>2012-03-17T13:15:43Z</time>
      </trkpt>
      <trkpt lat="44.74208" lon="5.04747">
        <ele>344.3</ele>
        <time>2012-03-17T13:16:31Z</time>
      </trkpt>
      <trkpt lat="44.74249" lon="5.04721">
        <ele>365.6</ele>
        <time>2012-03-17T13:17:33Z</time>
      </trkpt>
      <trkpt lat="44.74291" lon="5.04748">
        <ele>379.5</ele>
        <time>2012-03-17T13:18:02Z</time>
      </trkpt>
      <trkpt lat="44.74337" lon="5.0476">
        <ele>379.5</ele>
        <time>2012-03-17T13:18:25Z</time>
      </trkpt>
      <trkpt lat="44.74384" lon="5.04773">
        <ele>379.5</ele>
        <time>2012-03-17T13:18:44Z</time>
      </trkpt>
      <trkpt lat="44.74433" lon="5.04783">
        <ele>379.5</ele>
        <time>2012-03-17T13:18:55Z</time>
      </trkpt>
      <trkpt lat="44.74478" lon="5.04786">
        <ele>379.5</ele>
        <time>2012-03-17T13:19:04Z</time>
      </trkpt>
      <trkpt lat="44.74524" lon="5.04788">
        <ele>379.5</ele>
        <time>2012-03-17T13:19:13Z</time>
      </trkpt>
      <trkpt lat="44.7457" lon="5.04788">
        <ele>379.5</ele>
        <time>2012-03-17T13:19:26Z</time>
      </trkpt>
      <trkpt lat="44.74617" lon="5.04795">
        <ele>379.5</ele>
        <time>2012-03-17T13:19:40Z</time>
      </trkpt>
      <trkpt lat="44.74662" lon="5.04807">
        <ele>379.5</ele>
        <time>2012-03-17T13:19:59Z</time>
      </trkpt>
      <trkpt lat="44.74709" lon="5.04809">
        <ele>379.5</ele>
        <time>2012-03-17T13:20:21Z</time>
      </trkpt>
      <trkpt lat="44.74757" lon="5.04809">
        <ele>390.8</ele>
        <time>2012-03-17T13:20:42Z</time>
      </trkpt>
      <trkpt lat="44.74803" lon="5.04811">
        <ele>390.8</ele>
        <time>2012-03-17T13:20:58Z</time>
      </trkpt>
      <trkpt lat="44.74849" lon="5.04812">
        <ele>390.8</ele>
        <time>2012-03-17T13:21:14Z</time>
      </trkpt>
      <trkpt lat="44.74895" lon="5.0481">
        <ele>390.8</ele>
        <time>2012-03-17T13:21:27Z</time>
      </trkpt>
      <trkpt lat="44.7494" lon="5.04795">
        <ele>390.8</ele>
        <time>2012-03-17T13:21:38Z</time>
      </trkpt>
      <trkpt lat="44.74982" lon="5.04763">
        <ele>390.8</ele>
        <time>2012-03-17T13:21:57Z</time>
      </trkpt>
      <trkpt lat="44.7503" lon="5.04742">
        <ele>390.8</ele>
        <time>2012-03-17T13:22:06Z</time>
      </trkpt>
      <trkpt lat="44.75072" lon="5.04719">
        <ele>390.8</ele>
        <time>2012-03-17T13:22:15Z</time>
      </trkpt>
      <trkpt lat="44.7512" lon="5.04702">
        <ele>390.8</ele>
        <time>2012-03-17T13:22:27Z</time>
      </trkpt>
      <trkpt lat="44.75168" lon="5.04705">
        <ele>390.8</ele>
        <time>2012-03-17T13:22:40Z</time>
      </trkpt>
      <trkpt lat="44.75213" lon="5.04716">
        <ele>390.8</ele>
        <time>2012-03-17T13:22:56Z</time>
      </trkpt>
      <trkpt lat="44.75253" lon="5.04685">
        <ele>390.8</ele>
        <time>2012-03-17T13:23:13Z</time>
      </trkpt>
      <trkpt lat="44.75294" lon="5.0465">
        <ele>390.8</ele>
        <time>2012-03-17T13:23:33Z</time>
      </trkpt>
      <trkpt lat="44.75339" lon="5.04632">
        <ele>397.9</ele>
        <time>2012-03-17T13:23:52Z</time>
      </trkpt>
      <trkpt lat="44.75385" lon="5.04622">
        <ele>401.1</ele>
        <time>2012-03-17T13:24:10Z</time>
      </trkpt>
      <trkpt lat="44.75414" lon="5.04595">
        <ele>401.1</ele>
        <time>2012-03-17T13:24:24Z</time>
      </trkpt>
      <trkpt lat="44.75459" lon="5.04587">
        <ele>409.4</ele>
        <time>2012-03-17T13:24:50Z</time>
      </trkpt>
      <trkpt lat="44.75504" lon="5.0457">
        <ele>411.2</ele>
        <time>2012-03-17T13:25:16Z</time>
      </trkpt>
      <trkpt lat="44.75549" lon="5.04561">
        <ele>419.1</ele>
        <time>2012-03-17T13:25:40Z</time>
      </trkpt>
      <trkpt lat="44.75594" lon="5.04554">
        <ele>425.3</ele>
        <time>2012-03-17T13:26:14Z</time>
      </trkpt>
      <trkpt lat="44.75639" lon="5.04566">
        <ele>437</ele>
        <time>2012-03-17T13:26:47Z</time>
      </trkpt>
      <trkpt lat="44.75681" lon="5.04589">
        <ele>437</ele>
        <time>2012-03-17T13:27:23Z</time>
      </trkpt>
      <trkpt lat="44.75726" lon="5.04615">
        <ele>448.5</ele>
        <time>2012-03-17T13:27:48Z</time>
      </trkpt>
      <trkpt lat="44.75757" lon="5.04661">
        <ele>448.5</ele>
        <time>2012-03-17T13:28:08Z</time>
      </trkpt>
      <trkpt lat="44.75787" lon="5.04711">
        <ele>458.8</ele>
        <time>2012-03-17T13:28:30Z</time>
      </trkpt>
      <trkpt lat="44.75807" lon="5.04769">
        <ele>462.2</ele>
        <time>2012-03-17T13:28:54Z</time>
      </trkpt>
      <trkpt lat="44.75843" lon="5.04809">
        <ele>473.1</ele>
        <time>2012-03-17T13:29:25Z</time>
      </trkpt>
      <trkpt lat="44.75877" lon="5.04852">
        <ele>473.1</ele>
        <time>2012-03-17T13:29:55Z</time>
      </trkpt>
      <trkpt lat="44.75921" lon="5.04875">
        <ele>473.1</ele>
        <time>2012-03-17T13:30:10Z</time>
      </trkpt>
      <trkpt lat="44.7597" lon="5.04892">
        <ele>473.1</ele>
        <time>2012-03-17T13:30:19Z</time>
      </trkpt>
      <trkpt lat="44.76014" lon="5.0491">
        <ele>473.1</ele>
        <time>2012-03-17T13:30:25Z</time>
      </trkpt>
      <trkpt lat="44.76062" lon="5.04925">
        <ele>461.6</ele>
        <time>2012-03-17T13:30:32Z</time>
      </trkpt>
      <trkpt lat="44.76107" lon="5.04934">
        <ele>461.6</ele>
        <time>2012-03-17T13:30:42Z</time>
      </trkpt>
      <trkpt lat="44.76154" lon="5.04935">
        <ele>461.6</ele>
        <time>2012-03-17T13:30:54Z</time>
      </trkpt>
      <trkpt lat="44.7617" lon="5.04932">
        <ele>461.6</ele>
        <time>2012-03-17T13:30:57Z</time>
      </trkpt>
      <trkpt lat="44.76213" lon="5.04953">
        <ele>461.6</ele>
        <time>2012-03-17T13:31:06Z</time>
      </trkpt>
      <trkpt lat="44.76203" lon="5.04936">
        <ele>461.6</ele>
        <time>2012-03-17T13:31:38Z</time>
      </trkpt>
      <trkpt lat="44.7625" lon="5.04934">
        <ele>455.9</ele>
        <time>2012-03-17T13:31:49Z</time>
      </trkpt>
      <trkpt lat="44.76291" lon="5.04923">
        <ele>452.4</ele>
        <time>2012-03-17T13:31:54Z</time>
      </trkpt>
      <trkpt lat="44.76328" lon="5.04876">
        <ele>448.1</ele>
        <time>2012-03-17T13:32:00Z</time>
      </trkpt>
      <trkpt lat="44.7634" lon="5.04855">
        <ele>446.2</ele>
        <time>2012-03-17T13:32:03Z</time>
      </trkpt>
      <trkpt lat="44.76364" lon="5.04836">
        <ele>443.6</ele>
        <time>2012-03-17T13:32:07Z</time>
      </trkpt>
      <trkpt lat="44.76388" lon="5.0483">
        <ele>441.7</ele>
        <time>2012-03-17T13:32:10Z</time>
      </trkpt>
      <trkpt lat="44.76427" lon="5.04831">
        <ele>438.5</ele>
        <time>2012-03-17T13:32:15Z</time>
      </trkpt>
      <trkpt lat="44.76473" lon="5.04802">
        <ele>433.4</ele>
        <time>2012-03-17T13:32:21Z</time>
      </trkpt>
      <trkpt lat="44.7652" lon="5.04775">
        <ele>428.4</ele>
        <time>2012-03-17T13:32:27Z</time>
      </trkpt>
      <trkpt lat="44.76558" lon="5.04749">
        <ele>422.2</ele>
        <time>2012-03-17T13:32:33Z</time>
      </trkpt>
      <trkpt lat="44.76593" lon="5.04741">
        <ele>416.4</ele>
        <time>2012-03-17T13:32:39Z</time>
      </trkpt>
      <trkpt lat="44.76634" lon="5.04703">
        <ele>409.9</ele>
        <time>2012-03-17T13:32:47Z</time>
      </trkpt>
      <trkpt lat="44.76658" lon="5.04693">
        <ele>405.8</ele>
        <time>2012-03-17T13:32:52Z</time>
      </trkpt>
      <trkpt lat="44.76697" lon="5.04658">
        <ele>394.2</ele>
        <time>2012-03-17T13:33:04Z</time>
      </trkpt>
      <trkpt lat="44.76747" lon="5.04638">
        <ele>387.3</ele>
        <time>2012-03-17T13:33:10Z</time>
      </trkpt>
      <trkpt lat="44.76792" lon="5.0463">
        <ele>387.3</ele>
        <time>2012-03-17T13:33:16Z</time>
      </trkpt>
      <trkpt lat="44.76841" lon="5.04626">
        <ele>387.3</ele>
        <time>2012-03-17T13:33:25Z</time>
      </trkpt>
      <trkpt lat="44.76888" lon="5.04617">
        <ele>387.3</ele>
        <time>2012-03-17T13:33:35Z</time>
      </trkpt>
      <trkpt lat="44.76932" lon="5.04598">
        <ele>387.3</ele>
        <time>2012-03-17T13:33:44Z</time>
      </trkpt>
      <trkpt lat="44.76976" lon="5.04562">
        <ele>387.3</ele>
        <time>2012-03-17T13:33:52Z</time>
      </trkpt>
      <trkpt lat="44.77001" lon="5.04535">
        <ele>370.3</ele>
        <time>2012-03-17T13:33:57Z</time>
      </trkpt>
      <trkpt lat="44.77036" lon="5.04528">
        <ele>367</ele>
        <time>2012-03-17T13:34:03Z</time>
      </trkpt>
      <trkpt lat="44.7707" lon="5.04515">
        <ele>364.2</ele>
        <time>2012-03-17T13:34:08Z</time>
      </trkpt>
      <trkpt lat="44.7709" lon="5.04518">
        <ele>362.6</ele>
        <time>2012-03-17T13:34:11Z</time>
      </trkpt>
      <trkpt lat="44.77132" lon="5.04544">
        <ele>359.2</ele>
        <time>2012-03-17T13:34:17Z</time>
      </trkpt>
      <trkpt lat="44.77172" lon="5.04577">
        <ele>354.1</ele>
        <time>2012-03-17T13:34:24Z</time>
      </trkpt>
      <trkpt lat="44.77182" lon="5.04578">
        <ele>352.4</ele>
        <time>2012-03-17T13:34:26Z</time>
      </trkpt>
      <trkpt lat="44.77198" lon="5.04571">
        <ele>349.8</ele>
        <time>2012-03-17T13:34:29Z</time>
      </trkpt>
      <trkpt lat="44.77219" lon="5.0458">
        <ele>346.4</ele>
        <time>2012-03-17T13:34:34Z</time>
      </trkpt>
      <trkpt lat="44.77224" lon="5.04567">
        <ele>344.7</ele>
        <time>2012-03-17T13:34:38Z</time>
      </trkpt>
      <trkpt lat="44.77212" lon="5.04529">
        <ele>341.7</ele>
        <time>2012-03-17T13:34:45Z</time>
      </trkpt>
      <trkpt lat="44.77207" lon="5.04464">
        <ele>336.5</ele>
        <time>2012-03-17T13:34:57Z</time>
      </trkpt>
      <trkpt lat="44.77199" lon="5.04398">
        <ele>335.2</ele>
        <time>2012-03-17T13:35:16Z</time>
      </trkpt>
      <trkpt lat="44.77199" lon="5.04362">
        <ele>335.2</ele>
        <time>2012-03-17T13:35:21Z</time>
      </trkpt>
      <trkpt lat="44.77205" lon="5.04345">
        <ele>335.2</ele>
        <time>2012-03-17T13:35:23Z</time>
      </trkpt>
      <trkpt lat="44.77248" lon="5.04327">
        <ele>338.9</ele>
        <time>2012-03-17T13:35:32Z</time>
      </trkpt>
      <trkpt lat="44.77252" lon="5.04334">
        <ele>346.3</ele>
        <time>2012-03-17T13:35:40Z</time>
      </trkpt>
      <trkpt lat="44.77234" lon="5.04373">
        <ele>351</ele>
        <time>2012-03-17T13:36:00Z</time>
      </trkpt>
      <trkpt lat="44.77262" lon="5.04425">
        <ele>351</ele>
        <time>2012-03-17T13:36:28Z</time>
      </trkpt>
      <trkpt lat="44.77294" lon="5.04473">
        <ele>351</ele>
        <time>2012-03-17T13:36:57Z</time>
      </trkpt>
      <trkpt lat="44.77333" lon="5.04506">
        <ele>356.9</ele>
        <time>2012-03-17T13:37:28Z</time>
      </trkpt>
      <trkpt lat="44.7735" lon="5.04566">
        <ele>373</ele>
        <time>2012-03-17T13:38:00Z</time>
      </trkpt>
      <trkpt lat="44.77366" lon="5.04613">
        <ele>373</ele>
        <time>2012-03-17T13:38:25Z</time>
      </trkpt>
      <trkpt lat="44.77332" lon="5.04655">
        <ele>375.1</ele>
        <time>2012-03-17T13:38:52Z</time>
      </trkpt>
      <trkpt lat="44.77317" lon="5.04717">
        <ele>383.6</ele>
        <time>2012-03-17T13:39:15Z</time>
      </trkpt>
      <trkpt lat="44.77311" lon="5.04781">
        <ele>383.6</ele>
        <time>2012-03-17T13:39:42Z</time>
      </trkpt>
      <trkpt lat="44.77316" lon="5.04845">
        <ele>383.6</ele>
        <time>2012-03-17T13:40:12Z</time>
      </trkpt>
      <trkpt lat="44.77345" lon="5.04894">
        <ele>396.2</ele>
        <time>2012-03-17T13:40:44Z</time>
      </trkpt>
      <trkpt lat="44.77384" lon="5.04934">
        <ele>396.2</ele>
        <time>2012-03-17T13:41:13Z</time>
      </trkpt>
      <trkpt lat="44.77423" lon="5.04968">
        <ele>407.4</ele>
        <time>2012-03-17T13:41:42Z</time>
      </trkpt>
      <trkpt lat="44.77462" lon="5.05001">
        <ele>407.4</ele>
        <time>2012-03-17T13:42:08Z</time>
      </trkpt>
      <trkpt lat="44.77495" lon="5.05045">
        <ele>407.4</ele>
        <time>2012-03-17T13:42:28Z</time>
      </trkpt>
      <trkpt lat="44.77529" lon="5.0509">
        <ele>418.5</ele>
        <time>2012-03-17T13:42:50Z</time>
      </trkpt>
      <trkpt lat="44.77564" lon="5.05133">
        <ele>418.5</ele>
        <time>2012-03-17T13:43:13Z</time>
      </trkpt>
      <trkpt lat="44.77601" lon="5.05171">
        <ele>418.5</ele>
        <time>2012-03-17T13:43:34Z</time>
      </trkpt>
      <trkpt lat="44.77633" lon="5.0522">
        <ele>418.5</ele>
        <time>2012-03-17T13:43:58Z</time>
      </trkpt>
      <trkpt lat="44.77675" lon="5.05249">
        <ele>418.5</ele>
        <time>2012-03-17T13:44:48Z</time>
      </trkpt>
      <trkpt lat="44.77701" lon="5.05301">
        <ele>441.6</ele>
        <time>2012-03-17T13:45:37Z</time>
      </trkpt>
      <trkpt lat="44.77723" lon="5.05357">
        <ele>450.9</ele>
        <time>2012-03-17T13:46:32Z</time>
      </trkpt>
      <trkpt lat="44.77735" lon="5.05384">
        <ele>455.4</ele>
        <time>2012-03-17T13:46:59Z</time>
      </trkpt>
      <trkpt lat="44.7778" lon="5.05378">
        <ele>456.8</ele>
        <time>2012-03-17T13:47:25Z</time>
      </trkpt>
      <trkpt lat="44.77826" lon="5.05373">
        <ele>466.1</ele>
        <time>2012-03-17T13:47:51Z</time>
      </trkpt>
      <trkpt lat="44.77873" lon="5.05365">
        <ele>466.1</ele>
        <time>2012-03-17T13:48:20Z</time>
      </trkpt>
      <trkpt lat="44.7791" lon="5.05362">
        <ele>466.1</ele>
        <time>2012-03-17T13:48:56Z</time>
      </trkpt>
      <trkpt lat="44.77955" lon="5.05376">
        <ele>479.8</ele>
        <time>2012-03-17T13:49:40Z</time>
      </trkpt>
      <trkpt lat="44.78" lon="5.05362">
        <ele>491.1</ele>
        <time>2012-03-17T13:50:38Z</time>
      </trkpt>
      <trkpt lat="44.78019" lon="5.05357">
        <ele>491.1</ele>
        <time>2012-03-17T13:50:53Z</time>
      </trkpt>
      <trkpt lat="44.78019" lon="5.05364">
        <ele>491.1</ele>
        <time>2012-03-17T13:50:57Z</time>
      </trkpt>
      <trkpt lat="44.78024" lon="5.05368">
        <ele>491.1</ele>
        <time>2012-03-17T13:51:25Z</time>
      </trkpt>
      <trkpt lat="44.77998" lon="5.05421">
        <ele>491.1</ele>
        <time>2012-03-17T13:51:51Z</time>
      </trkpt>
      <trkpt lat="44.77962" lon="5.05459">
        <ele>502.7</ele>
        <time>2012-03-17T13:52:11Z</time>
      </trkpt>
      <trkpt lat="44.77927" lon="5.05499">
        <ele>502.7</ele>
        <time>2012-03-17T13:52:35Z</time>
      </trkpt>
      <trkpt lat="44.77895" lon="5.05544">
        <ele>502.7</ele>
        <time>2012-03-17T13:53:00Z</time>
      </trkpt>
      <trkpt lat="44.77872" lon="5.056">
        <ele>502.7</ele>
        <time>2012-03-17T13:53:24Z</time>
      </trkpt>
      <trkpt lat="44.77869" lon="5.05621">
        <ele>502.7</ele>
        <time>2012-03-17T13:53:30Z</time>
      </trkpt>
      <trkpt lat="44.77825" lon="5.05648">
        <ele>512.8</ele>
        <time>2012-03-17T13:53:49Z</time>
      </trkpt>
      <trkpt lat="44.77811" lon="5.05665">
        <ele>512.8</ele>
        <time>2012-03-17T13:53:57Z</time>
      </trkpt>
      <trkpt lat="44.77788" lon="5.0572">
        <ele>512.8</ele>
        <time>2012-03-17T13:54:21Z</time>
      </trkpt>
      <trkpt lat="44.77769" lon="5.05779">
        <ele>526</ele>
        <time>2012-03-17T13:54:45Z</time>
      </trkpt>
      <trkpt lat="44.77762" lon="5.05842">
        <ele>526</ele>
        <time>2012-03-17T13:55:18Z</time>
      </trkpt>
      <trkpt lat="44.77778" lon="5.05903">
        <ele>526</ele>
        <time>2012-03-17T13:55:35Z</time>
      </trkpt>
      <trkpt lat="44.77801" lon="5.0594">
        <ele>526</ele>
        <time>2012-03-17T13:55:52Z</time>
      </trkpt>
      <trkpt lat="44.77785" lon="5.05965">
        <ele>526</ele>
        <time>2012-03-17T13:56:06Z</time>
      </trkpt>
      <trkpt lat="44.77782" lon="5.05981">
        <ele>526</ele>
        <time>2012-03-17T13:56:09Z</time>
      </trkpt>
      <trkpt lat="44.77791" lon="5.06001">
        <ele>526</ele>
        <time>2012-03-17T13:56:13Z</time>
      </trkpt>
      <trkpt lat="44.77782" lon="5.06064">
        <ele>528.2</ele>
        <time>2012-03-17T13:56:28Z</time>
      </trkpt>
      <trkpt lat="44.77779" lon="5.06122">
        <ele>537.8</ele>
        <time>2012-03-17T13:56:43Z</time>
      </trkpt>
      <trkpt lat="44.77805" lon="5.06173">
        <ele>537.8</ele>
        <time>2012-03-17T13:56:58Z</time>
      </trkpt>
      <trkpt lat="44.778" lon="5.06217">
        <ele>537.8</ele>
        <time>2012-03-17T13:57:18Z</time>
      </trkpt>
      <trkpt lat="44.77756" lon="5.06239">
        <ele>540.1</ele>
        <time>2012-03-17T13:57:51Z</time>
      </trkpt>
      <trkpt lat="44.77712" lon="5.06222">
        <ele>551.1</ele>
        <time>2012-03-17T13:58:13Z</time>
      </trkpt>
      <trkpt lat="44.77701" lon="5.06227">
        <ele>551.1</ele>
        <time>2012-03-17T13:58:28Z</time>
      </trkpt>
      <trkpt lat="44.77681" lon="5.06272">
        <ele>551.1</ele>
        <time>2012-03-17T13:59:06Z</time>
      </trkpt>
      <trkpt lat="44.77683" lon="5.06275">
        <ele>551.1</ele>
        <time>2012-03-17T13:59:12Z</time>
      </trkpt>
      <trkpt lat="44.7765" lon="5.06319">
        <ele>564.6</ele>
        <time>2012-03-17T14:00:12Z</time>
      </trkpt>
      <trkpt lat="44.77611" lon="5.06354">
        <ele>577.4</ele>
        <time>2012-03-17T14:00:49Z</time>
      </trkpt>
      <trkpt lat="44.77567" lon="5.06372">
        <ele>599.4</ele>
        <time>2012-03-17T14:01:47Z</time>
      </trkpt>
      <trkpt lat="44.77522" lon="5.06367">
        <ele>599.4</ele>
        <time>2012-03-17T14:02:23Z</time>
      </trkpt>
      <trkpt lat="44.77506" lon="5.06354">
        <ele>599.4</ele>
        <time>2012-03-17T14:02:40Z</time>
      </trkpt>
      <trkpt lat="44.77498" lon="5.06376">
        <ele>599.4</ele>
        <time>2012-03-17T14:02:56Z</time>
      </trkpt>
      <trkpt lat="44.7749" lon="5.06373">
        <ele>599.4</ele>
        <time>2012-03-17T14:03:02Z</time>
      </trkpt>
      <trkpt lat="44.77479" lon="5.06349">
        <ele>599.4</ele>
        <time>2012-03-17T14:03:14Z</time>
      </trkpt>
      <trkpt lat="44.77439" lon="5.06329">
        <ele>595.8</ele>
        <time>2012-03-17T14:03:24Z</time>
      </trkpt>
      <trkpt lat="44.77408" lon="5.06315">
        <ele>589</ele>
        <time>2012-03-17T14:03:33Z</time>
      </trkpt>
      <trkpt lat="44.77381" lon="5.06318">
        <ele>589</ele>
        <time>2012-03-17T14:03:39Z</time>
      </trkpt>
      <trkpt lat="44.77343" lon="5.06305">
        <ele>589</ele>
        <time>2012-03-17T14:03:48Z</time>
      </trkpt>
      <trkpt lat="44.77297" lon="5.06299">
        <ele>589</ele>
        <time>2012-03-17T14:03:58Z</time>
      </trkpt>
      <trkpt lat="44.77269" lon="5.06294">
        <ele>589</ele>
        <time>2012-03-17T14:04:03Z</time>
      </trkpt>
      <trkpt lat="44.77224" lon="5.06314">
        <ele>575.6</ele>
        <time>2012-03-17T14:04:13Z</time>
      </trkpt>
      <trkpt lat="44.77179" lon="5.06317">
        <ele>573</ele>
        <time>2012-03-17T14:04:21Z</time>
      </trkpt>
      <trkpt lat="44.77131" lon="5.06317">
        <ele>573</ele>
        <time>2012-03-17T14:04:29Z</time>
      </trkpt>
      <trkpt lat="44.77088" lon="5.06299">
        <ele>573</ele>
        <time>2012-03-17T14:04:38Z</time>
      </trkpt>
      <trkpt lat="44.77067" lon="5.06282">
        <ele>573</ele>
        <time>2012-03-17T14:04:46Z</time>
      </trkpt>
      <trkpt lat="44.77023" lon="5.06268">
        <ele>567.6</ele>
        <time>2012-03-17T14:04:54Z</time>
      </trkpt>
      <trkpt lat="44.76985" lon="5.06234">
        <ele>556.7</ele>
        <time>2012-03-17T14:05:03Z</time>
      </trkpt>
      <trkpt lat="44.7696" lon="5.06183">
        <ele>556.7</ele>
        <time>2012-03-17T14:05:11Z</time>
      </trkpt>
      <trkpt lat="44.76955" lon="5.06169">
        <ele>556.7</ele>
        <time>2012-03-17T14:05:13Z</time>
      </trkpt>
      <trkpt lat="44.76945" lon="5.06157">
        <ele>556.7</ele>
        <time>2012-03-17T14:05:15Z</time>
      </trkpt>
      <trkpt lat="44.76896" lon="5.06148">
        <ele>556.7</ele>
        <time>2012-03-17T14:05:25Z</time>
      </trkpt>
      <trkpt lat="44.76848" lon="5.06145">
        <ele>554.2</ele>
        <time>2012-03-17T14:05:34Z</time>
      </trkpt>
      <trkpt lat="44.76825" lon="5.06136">
        <ele>547.9</ele>
        <time>2012-03-17T14:05:39Z</time>
      </trkpt>
      <trkpt lat="44.76778" lon="5.06153">
        <ele>537.6</ele>
        <time>2012-03-17T14:05:51Z</time>
      </trkpt>
      <trkpt lat="44.76732" lon="5.06171">
        <ele>530.5</ele>
        <time>2012-03-17T14:06:01Z</time>
      </trkpt>
      <trkpt lat="44.76683" lon="5.06175">
        <ele>524.9</ele>
        <time>2012-03-17T14:06:11Z</time>
      </trkpt>
      <trkpt lat="44.76635" lon="5.06169">
        <ele>520.9</ele>
        <time>2012-03-17T14:06:21Z</time>
      </trkpt>
      <trkpt lat="44.76587" lon="5.06167">
        <ele>520.9</ele>
        <time>2012-03-17T14:06:28Z</time>
      </trkpt>
      <trkpt lat="44.76561" lon="5.06168">
        <ele>520.9</ele>
        <time>2012-03-17T14:06:33Z</time>
      </trkpt>
      <trkpt lat="44.76513" lon="5.06148">
        <ele>520.9</ele>
        <time>2012-03-17T14:06:43Z</time>
      </trkpt>
      <trkpt lat="44.76473" lon="5.06116">
        <ele>511.8</ele>
        <time>2012-03-17T14:06:49Z</time>
      </trkpt>
      <trkpt lat="44.76427" lon="5.0609">
        <ele>506.9</ele>
        <time>2012-03-17T14:06:55Z</time>
      </trkpt>
      <trkpt lat="44.76381" lon="5.06077">
        <ele>502.9</ele>
        <time>2012-03-17T14:07:02Z</time>
      </trkpt>
      <trkpt lat="44.76332" lon="5.06076">
        <ele>490.1</ele>
        <time>2012-03-17T14:07:19Z</time>
      </trkpt>
      <trkpt lat="44.76285" lon="5.06096">
        <ele>482.3</ele>
        <time>2012-03-17T14:07:27Z</time>
      </trkpt>
      <trkpt lat="44.76238" lon="5.06118">
        <ele>476.6</ele>
        <time>2012-03-17T14:07:33Z</time>
      </trkpt>
      <trkpt lat="44.7619" lon="5.06134">
        <ele>468.6</ele>
        <time>2012-03-17T14:07:39Z</time>
      </trkpt>
      <trkpt lat="44.76141" lon="5.06149">
        <ele>463.3</ele>
        <time>2012-03-17T14:07:46Z</time>
      </trkpt>
      <trkpt lat="44.76093" lon="5.06161">
        <ele>463.3</ele>
        <time>2012-03-17T14:07:54Z</time>
      </trkpt>
      <trkpt lat="44.76044" lon="5.06165">
        <ele>463.3</ele>
        <time>2012-03-17T14:08:04Z</time>
      </trkpt>
      <trkpt lat="44.75998" lon="5.06164">
        <ele>463.3</ele>
        <time>2012-03-17T14:08:14Z</time>
      </trkpt>
      <trkpt lat="44.75951" lon="5.06178">
        <ele>463.3</ele>
        <time>2012-03-17T14:08:23Z</time>
      </trkpt>
      <trkpt lat="44.75903" lon="5.06191">
        <ele>463.3</ele>
        <time>2012-03-17T14:08:34Z</time>
      </trkpt>
      <trkpt lat="44.75862" lon="5.06202">
        <ele>453.6</ele>
        <time>2012-03-17T14:08:43Z</time>
      </trkpt>
      <trkpt lat="44.75817" lon="5.06231">
        <ele>451.7</ele>
        <time>2012-03-17T14:08:52Z</time>
      </trkpt>
      <trkpt lat="44.75768" lon="5.06233">
        <ele>451.7</ele>
        <time>2012-03-17T14:09:22Z</time>
      </trkpt>
      <trkpt lat="44.75722" lon="5.06227">
        <ele>438</ele>
        <time>2012-03-17T14:10:13Z</time>
      </trkpt>
      <trkpt lat="44.75675" lon="5.06237">
        <ele>435.9</ele>
        <time>2012-03-17T14:10:27Z</time>
      </trkpt>
      <trkpt lat="44.7563" lon="5.06246">
        <ele>427.9</ele>
        <time>2012-03-17T14:10:38Z</time>
      </trkpt>
      <trkpt lat="44.75613" lon="5.06256">
        <ele>425.3</ele>
        <time>2012-03-17T14:10:42Z</time>
      </trkpt>
      <trkpt lat="44.75596" lon="5.06253">
        <ele>422.5</ele>
        <time>2012-03-17T14:10:48Z</time>
      </trkpt>
      <trkpt lat="44.75561" lon="5.06295">
        <ele>411.3</ele>
        <time>2012-03-17T14:11:13Z</time>
      </trkpt>
      <trkpt lat="44.7553" lon="5.0632">
        <ele>402.6</ele>
        <time>2012-03-17T14:11:33Z</time>
      </trkpt>
      <trkpt lat="44.75519" lon="5.06323">
        <ele>397.3</ele>
        <time>2012-03-17T14:11:46Z</time>
      </trkpt>
      <trkpt lat="44.75506" lon="5.06331">
        <ele>393</ele>
        <time>2012-03-17T14:11:57Z</time>
      </trkpt>
      <trkpt lat="44.7546" lon="5.06322">
        <ele>389.9</ele>
        <time>2012-03-17T14:12:30Z</time>
      </trkpt>
      <trkpt lat="44.75429" lon="5.06344">
        <ele>378.7</ele>
        <time>2012-03-17T14:12:55Z</time>
      </trkpt>
      <trkpt lat="44.75427" lon="5.06355">
        <ele>378.7</ele>
        <time>2012-03-17T14:13:03Z</time>
      </trkpt>
      <trkpt lat="44.75415" lon="5.06357">
        <ele>378.7</ele>
        <time>2012-03-17T14:13:11Z</time>
      </trkpt>
      <trkpt lat="44.75407" lon="5.06377">
        <ele>378.7</ele>
        <time>2012-03-17T14:13:17Z</time>
      </trkpt>
      <trkpt lat="44.75377" lon="5.06411">
        <ele>373.6</ele>
        <time>2012-03-17T14:13:25Z</time>
      </trkpt>
      <trkpt lat="44.75373" lon="5.06422">
        <ele>370.2</ele>
        <time>2012-03-17T14:13:27Z</time>
      </trkpt>
      <trkpt lat="44.75352" lon="5.06431">
        <ele>368.5</ele>
        <time>2012-03-17T14:13:32Z</time>
      </trkpt>
      <trkpt lat="44.75312" lon="5.06462">
        <ele>368.5</ele>
        <time>2012-03-17T14:13:44Z</time>
      </trkpt>
      <trkpt lat="44.75271" lon="5.06478">
        <ele>368.5</ele>
        <time>2012-03-17T14:13:54Z</time>
      </trkpt>
      <trkpt lat="44.75256" lon="5.06498">
        <ele>368.5</ele>
        <time>2012-03-17T14:13:58Z</time>
      </trkpt>
      <trkpt lat="44.7524" lon="5.06505">
        <ele>368.5</ele>
        <time>2012-03-17T14:14:01Z</time>
      </trkpt>
      <trkpt lat="44.7519" lon="5.06484">
        <ele>365.7</ele>
        <time>2012-03-17T14:14:09Z</time>
      </trkpt>
      <trkpt lat="44.75141" lon="5.06472">
        <ele>357.3</ele>
        <time>2012-03-17T14:14:15Z</time>
      </trkpt>
      <trkpt lat="44.75091" lon="5.06455">
        <ele>351.5</ele>
        <time>2012-03-17T14:14:21Z</time>
      </trkpt>
      <trkpt lat="44.75041" lon="5.0644">
        <ele>348</ele>
        <time>2012-03-17T14:14:28Z</time>
      </trkpt>
      <trkpt lat="44.74992" lon="5.06427">
        <ele>344.4</ele>
        <time>2012-03-17T14:14:35Z</time>
      </trkpt>
      <trkpt lat="44.74944" lon="5.06424">
        <ele>341.4</ele>
        <time>2012-03-17T14:14:41Z</time>
      </trkpt>
      <trkpt lat="44.74895" lon="5.06432">
        <ele>334.2</ele>
        <time>2012-03-17T14:14:47Z</time>
      </trkpt>
      <trkpt lat="44.74862" lon="5.06443">
        <ele>329.4</ele>
        <time>2012-03-17T14:14:51Z</time>
      </trkpt>
      <trkpt lat="44.74836" lon="5.0644">
        <ele>328.2</ele>
        <time>2012-03-17T14:14:55Z</time>
      </trkpt>
      <trkpt lat="44.74834" lon="5.06447">
        <ele>328.2</ele>
        <time>2012-03-17T14:14:57Z</time>
      </trkpt>
      <trkpt lat="44.7486" lon="5.06502">
        <ele>328.2</ele>
        <time>2012-03-17T14:15:05Z</time>
      </trkpt>
      <trkpt lat="44.74889" lon="5.06554">
        <ele>328.2</ele>
        <time>2012-03-17T14:15:16Z</time>
      </trkpt>
      <trkpt lat="44.74925" lon="5.06602">
        <ele>328.2</ele>
        <time>2012-03-17T14:15:27Z</time>
      </trkpt>
      <trkpt lat="44.74969" lon="5.06624">
        <ele>328.2</ele>
        <time>2012-03-17T14:15:36Z</time>
      </trkpt>
      <trkpt lat="44.75014" lon="5.06624">
        <ele>328.2</ele>
        <time>2012-03-17T14:15:44Z</time>
      </trkpt>
      <trkpt lat="44.7506" lon="5.0663">
        <ele>328.2</ele>
        <time>2012-03-17T14:15:53Z</time>
      </trkpt>
      <trkpt lat="44.75071" lon="5.06637">
        <ele>328.2</ele>
        <time>2012-03-17T14:15:55Z</time>
      </trkpt>
      <trkpt lat="44.75085" lon="5.06679">
        <ele>328.2</ele>
        <time>2012-03-17T14:16:00Z</time>
      </trkpt>
      <trkpt lat="44.75087" lon="5.06745">
        <ele>328.2</ele>
        <time>2012-03-17T14:16:07Z</time>
      </trkpt>
      <trkpt lat="44.75094" lon="5.06776">
        <ele>328.2</ele>
        <time>2012-03-17T14:16:11Z</time>
      </trkpt>
      <trkpt lat="44.75102" lon="5.0679">
        <ele>328.2</ele>
        <time>2012-03-17T14:16:13Z</time>
      </trkpt>
      <trkpt lat="44.75134" lon="5.06802">
        <ele>328.2</ele>
        <time>2012-03-17T14:16:18Z</time>
      </trkpt>
      <trkpt lat="44.75179" lon="5.06787">
        <ele>328.2</ele>
        <time>2012-03-17T14:16:25Z</time>
      </trkpt>
      <trkpt lat="44.75225" lon="5.06767">
        <ele>328.2</ele>
        <time>2012-03-17T14:16:33Z</time>
      </trkpt>
      <trkpt lat="44.75251" lon="5.06754">
        <ele>328.2</ele>
        <time>2012-03-17T14:16:38Z</time>
      </trkpt>
      <trkpt lat="44.75278" lon="5.06756">
        <ele>328.2</ele>
        <time>2012-03-17T14:16:43Z</time>
      </trkpt>
      <trkpt lat="44.75291" lon="5.06768">
        <ele>328.2</ele>
        <time>2012-03-17T14:16:46Z</time>
      </trkpt>
      <trkpt lat="44.75272" lon="5.06829">
        <ele>328.2</ele>
        <time>2012-03-17T14:16:56Z</time>
      </trkpt>
      <trkpt lat="44.75241" lon="5.06883">
        <ele>328.2</ele>
        <time>2012-03-17T14:17:04Z</time>
      </trkpt>
      <trkpt lat="44.75211" lon="5.06935">
        <ele>325.5</ele>
        <time>2012-03-17T14:17:12Z</time>
      </trkpt>
      <trkpt lat="44.75189" lon="5.06974">
        <ele>314.8</ele>
        <time>2012-03-17T14:17:22Z</time>
      </trkpt>
      <trkpt lat="44.75197" lon="5.06994">
        <ele>314.8</ele>
        <time>2012-03-17T14:17:26Z</time>
      </trkpt>
      <trkpt lat="44.75232" lon="5.07034">
        <ele>314.8</ele>
        <time>2012-03-17T14:17:33Z</time>
      </trkpt>
      <trkpt lat="44.75275" lon="5.07065">
        <ele>314.8</ele>
        <time>2012-03-17T14:17:40Z</time>
      </trkpt>
      <trkpt lat="44.75316" lon="5.07095">
        <ele>314.8</ele>
        <time>2012-03-17T14:17:46Z</time>
      </trkpt>
      <trkpt lat="44.75355" lon="5.07132">
        <ele>314.8</ele>
        <time>2012-03-17T14:17:52Z</time>
      </trkpt>
      <trkpt lat="44.75398" lon="5.07174">
        <ele>314.8</ele>
        <time>2012-03-17T14:17:58Z</time>
      </trkpt>
      <trkpt lat="44.75437" lon="5.07226">
        <ele>309.1</ele>
        <time>2012-03-17T14:18:04Z</time>
      </trkpt>
      <trkpt lat="44.75478" lon="5.07269">
        <ele>302.4</ele>
        <time>2012-03-17T14:18:10Z</time>
      </trkpt>
      <trkpt lat="44.75516" lon="5.07314">
        <ele>301.3</ele>
        <time>2012-03-17T14:18:17Z</time>
      </trkpt>
      <trkpt lat="44.7555" lon="5.07356">
        <ele>301.3</ele>
        <time>2012-03-17T14:18:23Z</time>
      </trkpt>
      <trkpt lat="44.75591" lon="5.07392">
        <ele>301.3</ele>
        <time>2012-03-17T14:18:31Z</time>
      </trkpt>
      <trkpt lat="44.7563" lon="5.07424">
        <ele>301.3</ele>
        <time>2012-03-17T14:18:40Z</time>
      </trkpt>
      <trkpt lat="44.75673" lon="5.07455">
        <ele>301.3</ele>
        <time>2012-03-17T14:18:48Z</time>
      </trkpt>
      <trkpt lat="44.75717" lon="5.07488">
        <ele>301.3</ele>
        <time>2012-03-17T14:18:57Z</time>
      </trkpt>
      <trkpt lat="44.75756" lon="5.07518">
        <ele>301.3</ele>
        <time>2012-03-17T14:19:06Z</time>
      </trkpt>
      <trkpt lat="44.758" lon="5.0754">
        <ele>301.3</ele>
        <time>2012-03-17T14:19:16Z</time>
      </trkpt>
      <trkpt lat="44.75827" lon="5.07563">
        <ele>301.3</ele>
        <time>2012-03-17T14:19:23Z</time>
      </trkpt>
      <trkpt lat="44.75847" lon="5.07624">
        <ele>301.3</ele>
        <time>2012-03-17T14:19:32Z</time>
      </trkpt>
      <trkpt lat="44.75863" lon="5.07654">
        <ele>301.3</ele>
        <time>2012-03-17T14:19:39Z</time>
      </trkpt>
      <trkpt lat="44.75862" lon="5.07662">
        <ele>301.3</ele>
        <time>2012-03-17T14:20:04Z</time>
      </trkpt>
      <trkpt lat="44.75866" lon="5.07663">
        <ele>290.6</ele>
        <time>2012-03-17T14:21:42Z</time>
      </trkpt>
      <trkpt lat="44.75866" lon="5.07674">
        <ele>290.2</ele>
        <time>2012-03-17T14:21:47Z</time>
      </trkpt>
      <trkpt lat="44.75868" lon="5.07675">
        <ele>290.2</ele>
        <time>2012-03-17T14:22:29Z</time>
      </trkpt>
      <trkpt lat="44.75864" lon="5.07662">
        <ele>290.2</ele>
        <time>2012-03-17T14:22:44Z</time>
      </trkpt>
      <trkpt lat="44.75859" lon="5.07669">
        <ele>290.2</ele>
        <time>2012-03-17T14:23:05Z</time>
      </trkpt>
      <trkpt lat="44.75812" lon="5.07667">
        <ele>290.2</ele>
        <time>2012-03-17T14:23:19Z</time>
      </trkpt>
      <trkpt lat="44.75796" lon="5.07727">
        <ele>290.2</ele>
        <time>2012-03-17T14:23:41Z</time>
      </trkpt>
      <trkpt lat="44.75791" lon="5.07769">
        <ele>302.9</ele>
        <time>2012-03-17T14:24:01Z</time>
      </trkpt>
      <trkpt lat="44.75805" lon="5.07783">
        <ele>302.9</ele>
        <time>2012-03-17T14:24:15Z</time>
      </trkpt>
      <trkpt lat="44.75824" lon="5.07817">
        <ele>316.7</ele>
        <time>2012-03-17T14:24:38Z</time>
      </trkpt>
      <trkpt lat="44.75847" lon="5.07874">
        <ele>317.6</ele>
        <time>2012-03-17T14:25:16Z</time>
      </trkpt>
      <trkpt lat="44.75887" lon="5.07909">
        <ele>326.7</ele>
        <time>2012-03-17T14:25:44Z</time>
      </trkpt>
      <trkpt lat="44.75926" lon="5.07943">
        <ele>326.7</ele>
        <time>2012-03-17T14:26:10Z</time>
      </trkpt>
      <trkpt lat="44.75907" lon="5.08006">
        <ele>326.7</ele>
        <time>2012-03-17T14:26:25Z</time>
      </trkpt>
      <trkpt lat="44.7589" lon="5.08049">
        <ele>326.7</ele>
        <time>2012-03-17T14:26:35Z</time>
      </trkpt>
      <trkpt lat="44.75933" lon="5.08079">
        <ele>336.5</ele>
        <time>2012-03-17T14:27:33Z</time>
      </trkpt>
      <trkpt lat="44.75977" lon="5.08096">
        <ele>336.5</ele>
        <time>2012-03-17T14:28:11Z</time>
      </trkpt>
      <trkpt lat="44.76008" lon="5.08141">
        <ele>348</ele>
        <time>2012-03-17T14:28:54Z</time>
      </trkpt>
      <trkpt lat="44.76044" lon="5.08181">
        <ele>348</ele>
        <time>2012-03-17T14:29:23Z</time>
      </trkpt>
      <trkpt lat="44.7607" lon="5.08234">
        <ele>348</ele>
        <time>2012-03-17T14:29:56Z</time>
      </trkpt>
      <trkpt lat="44.76075" lon="5.08274">
        <ele>348</ele>
        <time>2012-03-17T14:30:21Z</time>
      </trkpt>
      <trkpt lat="44.76097" lon="5.08331">
        <ele>358.4</ele>
        <time>2012-03-17T14:31:01Z</time>
      </trkpt>
      <trkpt lat="44.76105" lon="5.08357">
        <ele>358.4</ele>
        <time>2012-03-17T14:31:17Z</time>
      </trkpt>
      <trkpt lat="44.76138" lon="5.08401">
        <ele>373.8</ele>
        <time>2012-03-17T14:31:54Z</time>
      </trkpt>
      <trkpt lat="44.76148" lon="5.08455">
        <ele>375.5</ele>
        <time>2012-03-17T14:33:44Z</time>
      </trkpt>
      <trkpt lat="44.76145" lon="5.08523">
        <ele>375.5</ele>
        <time>2012-03-17T14:33:56Z</time>
      </trkpt>
      <trkpt lat="44.76141" lon="5.08593">
        <ele>375.5</ele>
        <time>2012-03-17T14:34:06Z</time>
      </trkpt>
      <trkpt lat="44.76124" lon="5.08652">
        <ele>375.5</ele>
        <time>2012-03-17T14:34:14Z</time>
      </trkpt>
      <trkpt lat="44.76104" lon="5.0871">
        <ele>375.5</ele>
        <time>2012-03-17T14:34:22Z</time>
      </trkpt>
      <trkpt lat="44.76074" lon="5.08758">
        <ele>375.5</ele>
        <time>2012-03-17T14:34:39Z</time>
      </trkpt>
      <trkpt lat="44.76034" lon="5.08789">
        <ele>375.5</ele>
        <time>2012-03-17T14:35:01Z</time>
      </trkpt>
      <trkpt lat="44.75993" lon="5.08819">
        <ele>375.5</ele>
        <time>2012-03-17T14:35:23Z</time>
      </trkpt>
      <trkpt lat="44.75948" lon="5.0885">
        <ele>375.5</ele>
        <time>2012-03-17T14:35:51Z</time>
      </trkpt>
      <trkpt lat="44.75901" lon="5.08846">
        <ele>376.7</ele>
        <time>2012-03-17T14:36:20Z</time>
      </trkpt>
      <trkpt lat="44.75855" lon="5.08832">
        <ele>388.8</ele>
        <time>2012-03-17T14:36:44Z</time>
      </trkpt>
      <trkpt lat="44.7581" lon="5.08823">
        <ele>388.8</ele>
        <time>2012-03-17T14:37:11Z</time>
      </trkpt>
      <trkpt lat="44.75763" lon="5.08823">
        <ele>388.8</ele>
        <time>2012-03-17T14:37:34Z</time>
      </trkpt>
      <trkpt lat="44.75724" lon="5.08827">
        <ele>388.8</ele>
        <time>2012-03-17T14:37:43Z</time>
      </trkpt>
      <trkpt lat="44.75703" lon="5.08845">
        <ele>388.8</ele>
        <time>2012-03-17T14:37:52Z</time>
      </trkpt>
      <trkpt lat="44.75669" lon="5.08834">
        <ele>393</ele>
        <time>2012-03-17T14:38:02Z</time>
      </trkpt>
      <trkpt lat="44.75651" lon="5.08776">
        <ele>401.3</ele>
        <time>2012-03-17T14:38:24Z</time>
      </trkpt>
      <trkpt lat="44.75624" lon="5.08757">
        <ele>401.3</ele>
        <time>2012-03-17T14:38:47Z</time>
      </trkpt>
      <trkpt lat="44.75579" lon="5.0875">
        <ele>401.3</ele>
        <time>2012-03-17T14:39:13Z</time>
      </trkpt>
      <trkpt lat="44.75536" lon="5.08737">
        <ele>411.4</ele>
        <time>2012-03-17T14:39:49Z</time>
      </trkpt>
      <trkpt lat="44.75494" lon="5.08711">
        <ele>411.4</ele>
        <time>2012-03-17T14:40:27Z</time>
      </trkpt>
      <trkpt lat="44.75449" lon="5.08712">
        <ele>421.9</ele>
        <time>2012-03-17T14:40:52Z</time>
      </trkpt>
      <trkpt lat="44.75403" lon="5.08718">
        <ele>421.9</ele>
        <time>2012-03-17T14:41:17Z</time>
      </trkpt>
      <trkpt lat="44.75356" lon="5.08724">
        <ele>421.9</ele>
        <time>2012-03-17T14:41:36Z</time>
      </trkpt>
      <trkpt lat="44.7531" lon="5.08718">
        <ele>432.4</ele>
        <time>2012-03-17T14:41:57Z</time>
      </trkpt>
      <trkpt lat="44.75265" lon="5.08705">
        <ele>432.4</ele>
        <time>2012-03-17T14:42:28Z</time>
      </trkpt>
      <trkpt lat="44.75221" lon="5.08693">
        <ele>436.1</ele>
        <time>2012-03-17T14:42:55Z</time>
      </trkpt>
      <trkpt lat="44.75174" lon="5.08697">
        <ele>447.2</ele>
        <time>2012-03-17T14:43:19Z</time>
      </trkpt>
      <trkpt lat="44.7513" lon="5.0868">
        <ele>447.2</ele>
        <time>2012-03-17T14:43:39Z</time>
      </trkpt>
      <trkpt lat="44.75118" lon="5.08655">
        <ele>453.2</ele>
        <time>2012-03-17T14:43:56Z</time>
      </trkpt>
      <trkpt lat="44.75125" lon="5.08592">
        <ele>458.3</ele>
        <time>2012-03-17T14:44:14Z</time>
      </trkpt>
      <trkpt lat="44.7512" lon="5.08539">
        <ele>458.3</ele>
        <time>2012-03-17T14:44:25Z</time>
      </trkpt>
      <trkpt lat="44.75085" lon="5.08495">
        <ele>451.9</ele>
        <time>2012-03-17T14:44:43Z</time>
      </trkpt>
      <trkpt lat="44.75055" lon="5.08448">
        <ele>437</ele>
        <time>2012-03-17T14:45:00Z</time>
      </trkpt>
      <trkpt lat="44.75049" lon="5.08433">
        <ele>435.2</ele>
        <time>2012-03-17T14:45:03Z</time>
      </trkpt>
      <trkpt lat="44.75046" lon="5.08414">
        <ele>432.8</ele>
        <time>2012-03-17T14:45:07Z</time>
      </trkpt>
      <trkpt lat="44.75013" lon="5.0837">
        <ele>432.2</ele>
        <time>2012-03-17T14:45:16Z</time>
      </trkpt>
      <trkpt lat="44.74973" lon="5.08341">
        <ele>432.2</ele>
        <time>2012-03-17T14:45:35Z</time>
      </trkpt>
      <trkpt lat="44.7493" lon="5.08318">
        <ele>441</ele>
        <time>2012-03-17T14:46:02Z</time>
      </trkpt>
      <trkpt lat="44.74885" lon="5.08311">
        <ele>443.2</ele>
        <time>2012-03-17T14:46:19Z</time>
      </trkpt>
      <trkpt lat="44.74839" lon="5.08305">
        <ele>443.2</ele>
        <time>2012-03-17T14:46:32Z</time>
      </trkpt>
      <trkpt lat="44.74793" lon="5.0829">
        <ele>443.2</ele>
        <time>2012-03-17T14:46:41Z</time>
      </trkpt>
      <trkpt lat="44.74746" lon="5.08275">
        <ele>443.2</ele>
        <time>2012-03-17T14:46:48Z</time>
      </trkpt>
      <trkpt lat="44.74696" lon="5.08279">
        <ele>443.2</ele>
        <time>2012-03-17T14:46:56Z</time>
      </trkpt>
      <trkpt lat="44.74651" lon="5.08287">
        <ele>443.2</ele>
        <time>2012-03-17T14:47:08Z</time>
      </trkpt>
      <trkpt lat="44.74603" lon="5.08296">
        <ele>443.2</ele>
        <time>2012-03-17T14:47:22Z</time>
      </trkpt>
      <trkpt lat="44.7456" lon="5.08323">
        <ele>443.2</ele>
        <time>2012-03-17T14:47:36Z</time>
      </trkpt>
      <trkpt lat="44.74523" lon="5.08359">
        <ele>443.2</ele>
        <time>2012-03-17T14:47:53Z</time>
      </trkpt>
      <trkpt lat="44.74481" lon="5.08381">
        <ele>449.2</ele>
        <time>2012-03-17T14:49:37Z</time>
      </trkpt>
      <trkpt lat="44.74453" lon="5.08398">
        <ele>453.3</ele>
        <time>2012-03-17T14:50:08Z</time>
      </trkpt>
      <trkpt lat="44.74415" lon="5.08432">
        <ele>465.5</ele>
        <time>2012-03-17T14:50:47Z</time>
      </trkpt>
      <trkpt lat="44.74395" lon="5.08463">
        <ele>469.7</ele>
        <time>2012-03-17T14:52:33Z</time>
      </trkpt>
      <trkpt lat="44.74368" lon="5.08481">
        <ele>458.9</ele>
        <time>2012-03-17T14:52:48Z</time>
      </trkpt>
      <trkpt lat="44.74362" lon="5.08491">
        <ele>456.9</ele>
        <time>2012-03-17T14:52:51Z</time>
      </trkpt>
      <trkpt lat="44.74318" lon="5.0851">
        <ele>455.6</ele>
        <time>2012-03-17T14:53:08Z</time>
      </trkpt>
      <trkpt lat="44.74275" lon="5.08536">
        <ele>455.6</ele>
        <time>2012-03-17T14:53:20Z</time>
      </trkpt>
      <trkpt lat="44.74233" lon="5.08562">
        <ele>455.6</ele>
        <time>2012-03-17T14:53:40Z</time>
      </trkpt>
      <trkpt lat="44.74221" lon="5.08581">
        <ele>455.6</ele>
        <time>2012-03-17T14:53:45Z</time>
      </trkpt>
      <trkpt lat="44.74186" lon="5.08605">
        <ele>455.6</ele>
        <time>2012-03-17T14:53:53Z</time>
      </trkpt>
      <trkpt lat="44.74139" lon="5.08619">
        <ele>452.2</ele>
        <time>2012-03-17T14:54:03Z</time>
      </trkpt>
      <trkpt lat="44.74091" lon="5.08618">
        <ele>445.4</ele>
        <time>2012-03-17T14:54:14Z</time>
      </trkpt>
      <trkpt lat="44.74045" lon="5.08612">
        <ele>445.4</ele>
        <time>2012-03-17T14:54:31Z</time>
      </trkpt>
      <trkpt lat="44.74015" lon="5.08631">
        <ele>445.4</ele>
        <time>2012-03-17T14:54:45Z</time>
      </trkpt>
      <trkpt lat="44.73994" lon="5.08654">
        <ele>445.4</ele>
        <time>2012-03-17T14:54:53Z</time>
      </trkpt>
      <trkpt lat="44.73948" lon="5.08669">
        <ele>442.2</ele>
        <time>2012-03-17T14:55:03Z</time>
      </trkpt>
      <trkpt lat="44.73901" lon="5.08683">
        <ele>436.9</ele>
        <time>2012-03-17T14:55:13Z</time>
      </trkpt>
      <trkpt lat="44.73855" lon="5.08699">
        <ele>431.9</ele>
        <time>2012-03-17T14:55:23Z</time>
      </trkpt>
      <trkpt lat="44.73807" lon="5.08699">
        <ele>426.2</ele>
        <time>2012-03-17T14:55:36Z</time>
      </trkpt>
      <trkpt lat="44.73761" lon="5.08697">
        <ele>419.3</ele>
        <time>2012-03-17T14:55:58Z</time>
      </trkpt>
      <trkpt lat="44.73713" lon="5.08702">
        <ele>419.3</ele>
        <time>2012-03-17T14:56:11Z</time>
      </trkpt>
      <trkpt lat="44.73667" lon="5.08701">
        <ele>424</ele>
        <time>2012-03-17T14:56:26Z</time>
      </trkpt>
      <trkpt lat="44.73622" lon="5.08709">
        <ele>429.9</ele>
        <time>2012-03-17T14:56:59Z</time>
      </trkpt>
      <trkpt lat="44.73576" lon="5.08713">
        <ele>429.9</ele>
        <time>2012-03-17T14:57:52Z</time>
      </trkpt>
      <trkpt lat="44.73529" lon="5.08707">
        <ele>437.9</ele>
        <time>2012-03-17T14:58:16Z</time>
      </trkpt>
      <trkpt lat="44.73483" lon="5.08701">
        <ele>440.6</ele>
        <time>2012-03-17T14:58:33Z</time>
      </trkpt>
      <trkpt lat="44.73436" lon="5.08692">
        <ele>440.6</ele>
        <time>2012-03-17T14:58:52Z</time>
      </trkpt>
      <trkpt lat="44.7339" lon="5.0869">
        <ele>440.6</ele>
        <time>2012-03-17T14:59:03Z</time>
      </trkpt>
      <trkpt lat="44.73343" lon="5.08683">
        <ele>440.6</ele>
        <time>2012-03-17T14:59:16Z</time>
      </trkpt>
      <trkpt lat="44.73298" lon="5.08665">
        <ele>430.7</ele>
        <time>2012-03-17T14:59:28Z</time>
      </trkpt>
      <trkpt lat="44.73251" lon="5.08653">
        <ele>427.3</ele>
        <time>2012-03-17T14:59:39Z</time>
      </trkpt>
      <trkpt lat="44.73204" lon="5.08644">
        <ele>427.3</ele>
        <time>2012-03-17T14:59:48Z</time>
      </trkpt>
      <trkpt lat="44.7317" lon="5.08641">
        <ele>427.3</ele>
        <time>2012-03-17T14:59:59Z</time>
      </trkpt>
      <trkpt lat="44.73147" lon="5.08666">
        <ele>416.5</ele>
        <time>2012-03-17T15:00:24Z</time>
      </trkpt>
      <trkpt lat="44.73101" lon="5.0865">
        <ele>416.5</ele>
        <time>2012-03-17T15:00:45Z</time>
      </trkpt>
      <trkpt lat="44.73055" lon="5.08629">
        <ele>416.5</ele>
        <time>2012-03-17T15:00:57Z</time>
      </trkpt>
      <trkpt lat="44.73007" lon="5.0861">
        <ele>408.2</ele>
        <time>2012-03-17T15:01:07Z</time>
      </trkpt>
      <trkpt lat="44.72963" lon="5.08584">
        <ele>403.4</ele>
        <time>2012-03-17T15:01:19Z</time>
      </trkpt>
      <trkpt lat="44.72935" lon="5.08559">
        <ele>403.4</ele>
        <time>2012-03-17T15:01:55Z</time>
      </trkpt>
      <trkpt lat="44.72905" lon="5.08534">
        <ele>403.4</ele>
        <time>2012-03-17T15:02:08Z</time>
      </trkpt>
      <trkpt lat="44.72876" lon="5.08482">
        <ele>390.2</ele>
        <time>2012-03-17T15:02:22Z</time>
      </trkpt>
      <trkpt lat="44.72858" lon="5.08483">
        <ele>390.2</ele>
        <time>2012-03-17T15:02:30Z</time>
      </trkpt>
      <trkpt lat="44.72858" lon="5.08436">
        <ele>390.2</ele>
        <time>2012-03-17T15:02:41Z</time>
      </trkpt>
      <trkpt lat="44.72847" lon="5.08427">
        <ele>390.2</ele>
        <time>2012-03-17T15:02:43Z</time>
      </trkpt>
      <trkpt lat="44.72823" lon="5.08385">
        <ele>382.3</ele>
        <time>2012-03-17T15:02:50Z</time>
      </trkpt>
      <trkpt lat="44.72808" lon="5.08374">
        <ele>378.3</ele>
        <time>2012-03-17T15:02:53Z</time>
      </trkpt>
      <trkpt lat="44.72792" lon="5.08348">
        <ele>378.3</ele>
        <time>2012-03-17T15:02:57Z</time>
      </trkpt>
      <trkpt lat="44.72784" lon="5.08342">
        <ele>378.3</ele>
        <time>2012-03-17T15:02:59Z</time>
      </trkpt>
      <trkpt lat="44.72778" lon="5.08305">
        <ele>378.3</ele>
        <time>2012-03-17T15:03:09Z</time>
      </trkpt>
      <trkpt lat="44.72782" lon="5.08241">
        <ele>378.3</ele>
        <time>2012-03-17T15:03:29Z</time>
      </trkpt>
      <trkpt lat="44.7277" lon="5.08179">
        <ele>378.3</ele>
        <time>2012-03-17T15:03:50Z</time>
      </trkpt>
      <trkpt lat="44.72789" lon="5.0812">
        <ele>390.7</ele>
        <time>2012-03-17T15:04:35Z</time>
      </trkpt>
      <trkpt lat="44.72818" lon="5.08071">
        <ele>390.7</ele>
        <time>2012-03-17T15:05:29Z</time>
      </trkpt>
      <trkpt lat="44.72775" lon="5.08048">
        <ele>390.7</ele>
        <time>2012-03-17T15:06:26Z</time>
      </trkpt>
      <trkpt lat="44.72741" lon="5.08001">
        <ele>390.7</ele>
        <time>2012-03-17T15:06:47Z</time>
      </trkpt>
      <trkpt lat="44.72705" lon="5.07958">
        <ele>403.4</ele>
        <time>2012-03-17T15:07:04Z</time>
      </trkpt>
      <trkpt lat="44.7267" lon="5.07919">
        <ele>403.4</ele>
        <time>2012-03-17T15:07:18Z</time>
      </trkpt>
      <trkpt lat="44.72633" lon="5.0788">
        <ele>403.4</ele>
        <time>2012-03-17T15:07:28Z</time>
      </trkpt>
      <trkpt lat="44.72596" lon="5.0784">
        <ele>403.4</ele>
        <time>2012-03-17T15:07:36Z</time>
      </trkpt>
      <trkpt lat="44.72561" lon="5.07796">
        <ele>396.4</ele>
        <time>2012-03-17T15:07:43Z</time>
      </trkpt>
      <trkpt lat="44.72536" lon="5.07736">
        <ele>389.4</ele>
        <time>2012-03-17T15:07:52Z</time>
      </trkpt>
      <trkpt lat="44.72522" lon="5.07718">
        <ele>389.4</ele>
        <time>2012-03-17T15:07:55Z</time>
      </trkpt>
      <trkpt lat="44.72491" lon="5.07704">
        <ele>389.4</ele>
        <time>2012-03-17T15:08:02Z</time>
      </trkpt>
      <trkpt lat="44.72468" lon="5.07704">
        <ele>389.4</ele>
        <time>2012-03-17T15:08:06Z</time>
      </trkpt>
      <trkpt lat="44.7246" lon="5.07698">
        <ele>389.4</ele>
        <time>2012-03-17T15:08:08Z</time>
      </trkpt>
      <trkpt lat="44.72491" lon="5.07648">
        <ele>389.4</ele>
        <time>2012-03-17T15:08:20Z</time>
      </trkpt>
      <trkpt lat="44.72514" lon="5.07585">
        <ele>389.4</ele>
        <time>2012-03-17T15:08:29Z</time>
      </trkpt>
      <trkpt lat="44.72534" lon="5.07532">
        <ele>389.4</ele>
        <time>2012-03-17T15:08:36Z</time>
      </trkpt>
      <trkpt lat="44.72541" lon="5.0747">
        <ele>373.9</ele>
        <time>2012-03-17T15:08:44Z</time>
      </trkpt>
      <trkpt lat="44.72545" lon="5.0745">
        <ele>367.6</ele>
        <time>2012-03-17T15:08:48Z</time>
      </trkpt>
      <trkpt lat="44.72543" lon="5.07428">
        <ele>361.4</ele>
        <time>2012-03-17T15:08:52Z</time>
      </trkpt>
      <trkpt lat="44.7255" lon="5.07397">
        <ele>355.5</ele>
        <time>2012-03-17T15:08:57Z</time>
      </trkpt>
      <trkpt lat="44.72534" lon="5.07345">
        <ele>349.2</ele>
        <time>2012-03-17T15:09:04Z</time>
      </trkpt>
      <trkpt lat="44.72558" lon="5.07306">
        <ele>343.8</ele>
        <time>2012-03-17T15:09:10Z</time>
      </trkpt>
      <trkpt lat="44.72573" lon="5.07242">
        <ele>339.3</ele>
        <time>2012-03-17T15:09:15Z</time>
      </trkpt>
      <trkpt lat="44.72574" lon="5.07203">
        <ele>335.7</ele>
        <time>2012-03-17T15:09:19Z</time>
      </trkpt>
      <trkpt lat="44.72568" lon="5.07179">
        <ele>332.9</ele>
        <time>2012-03-17T15:09:22Z</time>
      </trkpt>
      <trkpt lat="44.7257" lon="5.0717">
        <ele>332.1</ele>
        <time>2012-03-17T15:09:23Z</time>
      </trkpt>
      <trkpt lat="44.72591" lon="5.07156">
        <ele>328.3</ele>
        <time>2012-03-17T15:09:28Z</time>
      </trkpt>
      <trkpt lat="44.72592" lon="5.07145">
        <ele>326.7</ele>
        <time>2012-03-17T15:09:30Z</time>
      </trkpt>
      <trkpt lat="44.7259" lon="5.07138">
        <ele>325.9</ele>
        <time>2012-03-17T15:09:31Z</time>
      </trkpt>
      <trkpt lat="44.72559" lon="5.07093">
        <ele>320.4</ele>
        <time>2012-03-17T15:09:38Z</time>
      </trkpt>
      <trkpt lat="44.72525" lon="5.07043">
        <ele>305.3</ele>
        <time>2012-03-17T15:09:49Z</time>
      </trkpt>
      <trkpt lat="44.72487" lon="5.07006">
        <ele>296.9</ele>
        <time>2012-03-17T15:09:58Z</time>
      </trkpt>
      <trkpt lat="44.72459" lon="5.06989">
        <ele>291.3</ele>
        <time>2012-03-17T15:10:04Z</time>
      </trkpt>
      <trkpt lat="44.72458" lon="5.06983">
        <ele>290.2</ele>
        <time>2012-03-17T15:10:05Z</time>
      </trkpt>
      <trkpt lat="44.72463" lon="5.06977">
        <ele>289.5</ele>
        <time>2012-03-17T15:10:07Z</time>
      </trkpt>
      <trkpt lat="44.7251" lon="5.06989">
        <ele>289.5</ele>
        <time>2012-03-17T15:10:17Z</time>
      </trkpt>
      <trkpt lat="44.72559" lon="5.06995">
        <ele>289.5</ele>
        <time>2012-03-17T15:10:26Z</time>
      </trkpt>
      <trkpt lat="44.72589" lon="5.06998">
        <ele>289.5</ele>
        <time>2012-03-17T15:10:33Z</time>
      </trkpt>
      <trkpt lat="44.72613" lon="5.06983">
        <ele>289.5</ele>
        <time>2012-03-17T15:10:38Z</time>
      </trkpt>
      <trkpt lat="44.7264" lon="5.06922">
        <ele>277.6</ele>
        <time>2012-03-17T15:10:45Z</time>
      </trkpt>
      <trkpt lat="44.72646" lon="5.069">
        <ele>277.6</ele>
        <time>2012-03-17T15:10:48Z</time>
      </trkpt>
      <trkpt lat="44.72608" lon="5.06862">
        <ele>277.6</ele>
        <time>2012-03-17T15:11:31Z</time>
      </trkpt>
      <trkpt lat="44.7259" lon="5.06847">
        <ele>270</ele>
        <time>2012-03-17T15:11:37Z</time>
      </trkpt>
      <trkpt lat="44.72593" lon="5.06812">
        <ele>265</ele>
        <time>2012-03-17T15:11:47Z</time>
      </trkpt>
      <trkpt lat="44.72608" lon="5.06751">
        <ele>265</ele>
        <time>2012-03-17T15:12:38Z</time>
      </trkpt>
      <trkpt lat="44.72613" lon="5.06731">
        <ele>265</ele>
        <time>2012-03-17T15:12:42Z</time>
      </trkpt>
      <trkpt lat="44.72602" lon="5.06719">
        <ele>262.7</ele>
        <time>2012-03-17T15:12:46Z</time>
      </trkpt>
      <trkpt lat="44.72574" lon="5.06718">
        <ele>250.7</ele>
        <time>2012-03-17T15:12:52Z</time>
      </trkpt>
      <trkpt lat="44.72563" lon="5.06707">
        <ele>249.2</ele>
        <time>2012-03-17T15:12:55Z</time>
      </trkpt>
      <trkpt lat="44.72543" lon="5.06679">
        <ele>246.1</ele>
        <time>2012-03-17T15:13:01Z</time>
      </trkpt>
      <trkpt lat="44.72502" lon="5.06654">
        <ele>241.4</ele>
        <time>2012-03-17T15:13:10Z</time>
      </trkpt>
      <trkpt lat="44.72486" lon="5.0664">
        <ele>240</ele>
        <time>2012-03-17T15:13:13Z</time>
      </trkpt>
      <trkpt lat="44.7244" lon="5.06627">
        <ele>237.3</ele>
        <time>2012-03-17T15:13:19Z</time>
      </trkpt>
      <trkpt lat="44.7241" lon="5.06618">
        <ele>235.7</ele>
        <time>2012-03-17T15:13:23Z</time>
      </trkpt>
      <trkpt lat="44.72365" lon="5.06583">
        <ele>232.7</ele>
        <time>2012-03-17T15:13:30Z</time>
      </trkpt>
      <trkpt lat="44.72321" lon="5.06555">
        <ele>229.7</ele>
        <time>2012-03-17T15:13:37Z</time>
      </trkpt>
      <trkpt lat="44.72273" lon="5.06529">
        <ele>227.6</ele>
        <time>2012-03-17T15:13:44Z</time>
      </trkpt>
      <trkpt lat="44.72228" lon="5.06497">
        <ele>227.6</ele>
        <time>2012-03-17T15:13:53Z</time>
      </trkpt>
      <trkpt lat="44.72189" lon="5.0646">
        <ele>227.6</ele>
        <time>2012-03-17T15:14:00Z</time>
      </trkpt>
      <trkpt lat="44.72148" lon="5.06425">
        <ele>227.6</ele>
        <time>2012-03-17T15:14:07Z</time>
      </trkpt>
      <trkpt lat="44.72109" lon="5.06389">
        <ele>227.6</ele>
        <time>2012-03-17T15:14:14Z</time>
      </trkpt>
      <trkpt lat="44.72074" lon="5.06353">
        <ele>227.6</ele>
        <time>2012-03-17T15:14:21Z</time>
      </trkpt>
      <trkpt lat="44.72062" lon="5.06287">
        <ele>227.6</ele>
        <time>2012-03-17T15:14:27Z</time>
      </trkpt>
      <trkpt lat="44.72056" lon="5.06221">
        <ele>224.8</ele>
        <time>2012-03-17T15:14:33Z</time>
      </trkpt>
      <trkpt lat="44.72055" lon="5.06171">
        <ele>219.2</ele>
        <time>2012-03-17T15:14:39Z</time>
      </trkpt>
      <trkpt lat="44.72061" lon="5.06165">
        <ele>217.2</ele>
        <time>2012-03-17T15:14:41Z</time>
      </trkpt>
      <trkpt lat="44.72105" lon="5.06187">
        <ele>217.2</ele>
        <time>2012-03-17T15:14:57Z</time>
      </trkpt>
      <trkpt lat="44.72148" lon="5.06219">
        <ele>217.2</ele>
        <time>2012-03-17T15:15:10Z</time>
      </trkpt>
      <trkpt lat="44.72191" lon="5.06248">
        <ele>217.2</ele>
        <time>2012-03-17T15:15:23Z</time>
      </trkpt>
      <trkpt lat="44.72235" lon="5.06269">
        <ele>217.2</ele>
        <time>2012-03-17T15:15:36Z</time>
      </trkpt>
      <trkpt lat="44.72277" lon="5.06294">
        <ele>227.6</ele>
        <time>2012-03-17T15:15:48Z</time>
      </trkpt>
      <trkpt lat="44.72322" lon="5.06307">
        <ele>227.6</ele>
        <time>2012-03-17T15:16:00Z</time>
      </trkpt>
      <trkpt lat="44.72371" lon="5.06297">
        <ele>227.6</ele>
        <time>2012-03-17T15:16:14Z</time>
      </trkpt>
      <trkpt lat="44.72419" lon="5.06281">
        <ele>227.6</ele>
        <time>2012-03-17T15:16:29Z</time>
      </trkpt>
      <trkpt lat="44.72465" lon="5.06276">
        <ele>227.6</ele>
        <time>2012-03-17T15:16:41Z</time>
      </trkpt>
      <trkpt lat="44.72511" lon="5.06292">
        <ele>227.6</ele>
        <time>2012-03-17T15:16:53Z</time>
      </trkpt>
      <trkpt lat="44.72556" lon="5.06314">
        <ele>227.6</ele>
        <time>2012-03-17T15:17:06Z</time>
      </trkpt>
      <trkpt lat="44.72602" lon="5.06325">
        <ele>227.6</ele>
        <time>2012-03-17T15:17:19Z</time>
      </trkpt>
      <trkpt lat="44.72645" lon="5.06331">
        <ele>227.6</ele>
        <time>2012-03-17T15:17:29Z</time>
      </trkpt>
      <trkpt lat="44.72673" lon="5.063">
        <ele>229.8</ele>
        <time>2012-03-17T15:17:38Z</time>
      </trkpt>
      <trkpt lat="44.72677" lon="5.06237">
        <ele>238.2</ele>
        <time>2012-03-17T15:18:07Z</time>
      </trkpt>
      <trkpt lat="44.72703" lon="5.06184">
        <ele>250.6</ele>
        <time>2012-03-17T15:18:43Z</time>
      </trkpt>
      <trkpt lat="44.72711" lon="5.06163">
        <ele>250.6</ele>
        <time>2012-03-17T15:19:00Z</time>
      </trkpt>
      <trkpt lat="44.72671" lon="5.06131">
        <ele>260.7</ele>
        <time>2012-03-17T15:19:45Z</time>
      </trkpt>
      <trkpt lat="44.72671" lon="5.0611">
        <ele>260.7</ele>
        <time>2012-03-17T15:20:08Z</time>
      </trkpt>
      <trkpt lat="44.72716" lon="5.06113">
        <ele>272.3</ele>
        <time>2012-03-17T15:20:42Z</time>
      </trkpt>
      <trkpt lat="44.72761" lon="5.06092">
        <ele>272.3</ele>
        <time>2012-03-17T15:21:01Z</time>
      </trkpt>
      <trkpt lat="44.72797" lon="5.06065">
        <ele>272.3</ele>
        <time>2012-03-17T15:21:20Z</time>
      </trkpt>
      <trkpt lat="44.72794" lon="5.06059">
        <ele>272.3</ele>
        <time>2012-03-17T15:21:24Z</time>
      </trkpt>
      <trkpt lat="44.72767" lon="5.06057">
        <ele>272.3</ele>
        <time>2012-03-17T15:21:39Z</time>
      </trkpt>
      <trkpt lat="44.72795" lon="5.06008">
        <ele>289.8</ele>
        <time>2012-03-17T15:22:06Z</time>
      </trkpt>
      <trkpt lat="44.72835" lon="5.05976">
        <ele>289.8</ele>
        <time>2012-03-17T15:22:33Z</time>
      </trkpt>
      <trkpt lat="44.72872" lon="5.05935">
        <ele>289.8</ele>
        <time>2012-03-17T15:23:02Z</time>
      </trkpt>
      <trkpt lat="44.72911" lon="5.05901">
        <ele>302.1</ele>
        <time>2012-03-17T15:23:30Z</time>
      </trkpt>
      <trkpt lat="44.72952" lon="5.05872">
        <ele>304.3</ele>
        <time>2012-03-17T15:24:02Z</time>
      </trkpt>
      <trkpt lat="44.72997" lon="5.05856">
        <ele>312.3</ele>
        <time>2012-03-17T15:24:28Z</time>
      </trkpt>
      <trkpt lat="44.73042" lon="5.05846">
        <ele>312.3</ele>
        <time>2012-03-17T15:24:57Z</time>
      </trkpt>
      <trkpt lat="44.73088" lon="5.05852">
        <ele>312.3</ele>
        <time>2012-03-17T15:25:26Z</time>
      </trkpt>
      <trkpt lat="44.73133" lon="5.05867">
        <ele>324.1</ele>
        <time>2012-03-17T15:26:04Z</time>
      </trkpt>
      <trkpt lat="44.73171" lon="5.05903">
        <ele>332.8</ele>
        <time>2012-03-17T15:26:36Z</time>
      </trkpt>
      <trkpt lat="44.73193" lon="5.05927">
        <ele>334.9</ele>
        <time>2012-03-17T15:27:06Z</time>
      </trkpt>
      <trkpt lat="44.73233" lon="5.0591">
        <ele>349.1</ele>
        <time>2012-03-17T15:27:36Z</time>
      </trkpt>
      <trkpt lat="44.73229" lon="5.05884">
        <ele>349.1</ele>
        <time>2012-03-17T15:27:43Z</time>
      </trkpt>
      <trkpt lat="44.73207" lon="5.05823">
        <ele>338.9</ele>
        <time>2012-03-17T15:27:56Z</time>
      </trkpt>
      <trkpt lat="44.73198" lon="5.05786">
        <ele>338.9</ele>
        <time>2012-03-17T15:28:05Z</time>
      </trkpt>
      <trkpt lat="44.73191" lon="5.05716">
        <ele>338.9</ele>
        <time>2012-03-17T15:28:28Z</time>
      </trkpt>
      <trkpt lat="44.73166" lon="5.05662">
        <ele>338.9</ele>
        <time>2012-03-17T15:28:51Z</time>
      </trkpt>
      <trkpt lat="44.73145" lon="5.05604">
        <ele>338.9</ele>
        <time>2012-03-17T15:29:01Z</time>
      </trkpt>
      <trkpt lat="44.73122" lon="5.05545">
        <ele>334.9</ele>
        <time>2012-03-17T15:29:10Z</time>
      </trkpt>
      <trkpt lat="44.73098" lon="5.05491">
        <ele>326.7</ele>
        <time>2012-03-17T15:29:19Z</time>
      </trkpt>
      <trkpt lat="44.73079" lon="5.05433">
        <ele>316.5</ele>
        <time>2012-03-17T15:29:34Z</time>
      </trkpt>
      <trkpt lat="44.73061" lon="5.05375">
        <ele>303.5</ele>
        <time>2012-03-17T15:29:47Z</time>
      </trkpt>
      <trkpt lat="44.73051" lon="5.05333">
        <ele>297.5</ele>
        <time>2012-03-17T15:29:53Z</time>
      </trkpt>
      <trkpt lat="44.73067" lon="5.05275">
        <ele>294.4</ele>
        <time>2012-03-17T15:30:00Z</time>
      </trkpt>
      <trkpt lat="44.73089" lon="5.05215">
        <ele>294.4</ele>
        <time>2012-03-17T15:30:06Z</time>
      </trkpt>
      <trkpt lat="44.73108" lon="5.05178">
        <ele>294.4</ele>
        <time>2012-03-17T15:30:14Z</time>
      </trkpt>
      <trkpt lat="44.73116" lon="5.05115">
        <ele>294.4</ele>
        <time>2012-03-17T15:30:27Z</time>
      </trkpt>
      <trkpt lat="44.73118" lon="5.0505">
        <ele>294.4</ele>
        <time>2012-03-17T15:30:41Z</time>
      </trkpt>
      <trkpt lat="44.7312" lon="5.05038">
        <ele>294.4</ele>
        <time>2012-03-17T15:30:44Z</time>
      </trkpt>
      <trkpt lat="44.73153" lon="5.05011">
        <ele>293.5</ele>
        <time>2012-03-17T15:30:55Z</time>
      </trkpt>
      <trkpt lat="44.73144" lon="5.04948">
        <ele>287.9</ele>
        <time>2012-03-17T15:31:07Z</time>
      </trkpt>
      <trkpt lat="44.73133" lon="5.04896">
        <ele>283.7</ele>
        <time>2012-03-17T15:31:16Z</time>
      </trkpt>
      <trkpt lat="44.73137" lon="5.04862">
        <ele>281.4</ele>
        <time>2012-03-17T15:31:21Z</time>
      </trkpt>
      <trkpt lat="44.73117" lon="5.04831">
        <ele>281.4</ele>
        <time>2012-03-17T15:31:31Z</time>
      </trkpt>
      <trkpt lat="44.73136" lon="5.04772">
        <ele>281.4</ele>
        <time>2012-03-17T15:31:50Z</time>
      </trkpt>
      <trkpt lat="44.73143" lon="5.04768">
        <ele>281.4</ele>
        <time>2012-03-17T15:31:54Z</time>
      </trkpt>
      <trkpt lat="44.7314" lon="5.04696">
        <ele>277.1</ele>
        <time>2012-03-17T15:32:08Z</time>
      </trkpt>
      <trkpt lat="44.73138" lon="5.04666">
        <ele>270.5</ele>
        <time>2012-03-17T15:32:11Z</time>
      </trkpt>
      <trkpt lat="44.73107" lon="5.04612">
        <ele>264.5</ele>
        <time>2012-03-17T15:32:18Z</time>
      </trkpt>
      <trkpt lat="44.73079" lon="5.04569">
        <ele>260.8</ele>
        <time>2012-03-17T15:32:24Z</time>
      </trkpt>
      <trkpt lat="44.7306" lon="5.04523">
        <ele>255.8</ele>
        <time>2012-03-17T15:32:30Z</time>
      </trkpt>
      <trkpt lat="44.7302" lon="5.04468">
        <ele>249.7</ele>
        <time>2012-03-17T15:32:35Z</time>
      </trkpt>
      <trkpt lat="44.72983" lon="5.04422">
        <ele>244.7</ele>
        <time>2012-03-17T15:32:39Z</time>
      </trkpt>
      <trkpt lat="44.72958" lon="5.0439">
        <ele>241.3</ele>
        <time>2012-03-17T15:32:42Z</time>
      </trkpt>
      <trkpt lat="44.72948" lon="5.04347">
        <ele>237.9</ele>
        <time>2012-03-17T15:32:45Z</time>
      </trkpt>
      <trkpt lat="44.72943" lon="5.04338">
        <ele>236.7</ele>
        <time>2012-03-17T15:32:46Z</time>
      </trkpt>
      <trkpt lat="44.72897" lon="5.0431">
        <ele>231</ele>
        <time>2012-03-17T15:32:52Z</time>
      </trkpt>
      <trkpt lat="44.72852" lon="5.0429">
        <ele>231</ele>
        <time>2012-03-17T15:32:58Z</time>
      </trkpt>
      <trkpt lat="44.72826" lon="5.04278">
        <ele>231</ele>
        <time>2012-03-17T15:33:02Z</time>
      </trkpt>
      <trkpt lat="44.72811" lon="5.04287">
        <ele>231</ele>
        <time>2012-03-17T15:33:05Z</time>
      </trkpt>
      <trkpt lat="44.72797" lon="5.04352">
        <ele>231</ele>
        <time>2012-03-17T15:33:13Z</time>
      </trkpt>
      <trkpt lat="44.72785" lon="5.04414">
        <ele>231</ele>
        <time>2012-03-17T15:33:22Z</time>
      </trkpt>
      <trkpt lat="44.7277" lon="5.04479">
        <ele>231</ele>
        <time>2012-03-17T15:33:32Z</time>
      </trkpt>
      <trkpt lat="44.7275" lon="5.04536">
        <ele>231</ele>
        <time>2012-03-17T15:33:41Z</time>
      </trkpt>
      <trkpt lat="44.72726" lon="5.04595">
        <ele>231</ele>
        <time>2012-03-17T15:33:50Z</time>
      </trkpt>
      <trkpt lat="44.72703" lon="5.0465">
        <ele>231</ele>
        <time>2012-03-17T15:33:59Z</time>
      </trkpt>
      <trkpt lat="44.72684" lon="5.04709">
        <ele>231</ele>
        <time>2012-03-17T15:34:08Z</time>
      </trkpt>
      <trkpt lat="44.72663" lon="5.04772">
        <ele>231</ele>
        <time>2012-03-17T15:34:19Z</time>
      </trkpt>
      <trkpt lat="44.72656" lon="5.0484">
        <ele>231</ele>
        <time>2012-03-17T15:34:29Z</time>
      </trkpt>
      <trkpt lat="44.72638" lon="5.04901">
        <ele>231</ele>
        <time>2012-03-17T15:34:39Z</time>
      </trkpt>
      <trkpt lat="44.72611" lon="5.04959">
        <ele>231</ele>
        <time>2012-03-17T15:34:49Z</time>
      </trkpt>
      <trkpt lat="44.72582" lon="5.05015">
        <ele>231</ele>
        <time>2012-03-17T15:34:59Z</time>
      </trkpt>
      <trkpt lat="44.72547" lon="5.05057">
        <ele>231</ele>
        <time>2012-03-17T15:35:08Z</time>
      </trkpt>
      <trkpt lat="44.72512" lon="5.05103">
        <ele>231</ele>
        <time>2012-03-17T15:35:18Z</time>
      </trkpt>
      <trkpt lat="44.72479" lon="5.05154">
        <ele>231</ele>
        <time>2012-03-17T15:35:27Z</time>
      </trkpt>
      <trkpt lat="44.72446" lon="5.05202">
        <ele>231</ele>
        <time>2012-03-17T15:35:37Z</time>
      </trkpt>
      <trkpt lat="44.72409" lon="5.0524">
        <ele>231</ele>
        <time>2012-03-17T15:35:46Z</time>
      </trkpt>
      <trkpt lat="44.72375" lon="5.05281">
        <ele>231</ele>
        <time>2012-03-17T15:35:55Z</time>
      </trkpt>
      <trkpt lat="44.72337" lon="5.05324">
        <ele>231</ele>
        <time>2012-03-17T15:36:06Z</time>
      </trkpt>
      <trkpt lat="44.723" lon="5.05369">
        <ele>231</ele>
        <time>2012-03-17T15:36:16Z</time>
      </trkpt>
      <trkpt lat="44.72265" lon="5.05409">
        <ele>231</ele>
        <time>2012-03-17T15:36:26Z</time>
      </trkpt>
      <trkpt lat="44.72228" lon="5.0545">
        <ele>231</ele>
        <time>2012-03-17T15:36:36Z</time>
      </trkpt>
      <trkpt lat="44.72188" lon="5.05491">
        <ele>231</ele>
        <time>2012-03-17T15:36:47Z</time>
      </trkpt>
      <trkpt lat="44.72151" lon="5.05529">
        <ele>231</ele>
        <time>2012-03-17T15:36:57Z</time>
      </trkpt>
      <trkpt lat="44.72113" lon="5.05566">
        <ele>231</ele>
        <time>2012-03-17T15:37:07Z</time>
      </trkpt>
      <trkpt lat="44.72074" lon="5.05608">
        <ele>231</ele>
        <time>2012-03-17T15:37:17Z</time>
      </trkpt>
      <trkpt lat="44.72038" lon="5.05646">
        <ele>231</ele>
        <time>2012-03-17T15:37:26Z</time>
      </trkpt>
      <trkpt lat="44.71999" lon="5.05686">
        <ele>231</ele>
        <time>2012-03-17T15:37:36Z</time>
      </trkpt>
      <trkpt lat="44.71961" lon="5.05721">
        <ele>231</ele>
        <time>2012-03-17T15:37:44Z</time>
      </trkpt>
      <trkpt lat="44.71919" lon="5.05765">
        <ele>231</ele>
        <time>2012-03-17T15:37:51Z</time>
      </trkpt>
      <trkpt lat="44.71888" lon="5.05796">
        <ele>230</ele>
        <time>2012-03-17T15:37:55Z</time>
      </trkpt>
      <trkpt lat="44.71878" lon="5.05802">
        <ele>228.9</ele>
        <time>2012-03-17T15:37:56Z</time>
      </trkpt>
      <trkpt lat="44.71827" lon="5.05805">
        <ele>224.7</ele>
        <time>2012-03-17T15:38:00Z</time>
      </trkpt>
      <trkpt lat="44.71772" lon="5.05802">
        <ele>220.4</ele>
        <time>2012-03-17T15:38:04Z</time>
      </trkpt>
      <trkpt lat="44.71727" lon="5.05799">
        <ele>217.4</ele>
        <time>2012-03-17T15:38:08Z</time>
      </trkpt>
      <trkpt lat="44.71682" lon="5.05798">
        <ele>212.9</ele>
        <time>2012-03-17T15:38:15Z</time>
      </trkpt>
      <trkpt lat="44.71638" lon="5.05777">
        <ele>210.6</ele>
        <time>2012-03-17T15:38:24Z</time>
      </trkpt>
      <trkpt lat="44.7159" lon="5.05757">
        <ele>219.6</ele>
        <time>2012-03-17T15:38:33Z</time>
      </trkpt>
      <trkpt lat="44.71551" lon="5.05725">
        <ele>219.6</ele>
        <time>2012-03-17T15:38:45Z</time>
      </trkpt>
      <trkpt lat="44.71515" lon="5.0572">
        <ele>219.6</ele>
        <time>2012-03-17T15:38:53Z</time>
      </trkpt>
      <trkpt lat="44.71467" lon="5.05719">
        <ele>207</ele>
        <time>2012-03-17T15:39:01Z</time>
      </trkpt>
      <trkpt lat="44.71426" lon="5.05711">
        <ele>202.6</ele>
        <time>2012-03-17T15:39:08Z</time>
      </trkpt>
      <trkpt lat="44.71416" lon="5.05701">
        <ele>201.3</ele>
        <time>2012-03-17T15:39:10Z</time>
      </trkpt>
      <trkpt lat="44.71416" lon="5.05656">
        <ele>198.1</ele>
        <time>2012-03-17T15:39:15Z</time>
      </trkpt>
      <trkpt lat="44.71399" lon="5.05592">
        <ele>196.9</ele>
        <time>2012-03-17T15:39:23Z</time>
      </trkpt>
      <trkpt lat="44.7139" lon="5.0556">
        <ele>196.9</ele>
        <time>2012-03-17T15:39:27Z</time>
      </trkpt>
      <trkpt lat="44.71396" lon="5.05491">
        <ele>196.9</ele>
        <time>2012-03-17T15:39:34Z</time>
      </trkpt>
      <trkpt lat="44.71385" lon="5.05426">
        <ele>196.9</ele>
        <time>2012-03-17T15:39:43Z</time>
      </trkpt>
      <trkpt lat="44.71376" lon="5.05379">
        <ele>196.9</ele>
        <time>2012-03-17T15:39:50Z</time>
      </trkpt>
      <trkpt lat="44.71367" lon="5.05372">
        <ele>196.9</ele>
        <time>2012-03-17T15:39:54Z</time>
      </trkpt>
      <trkpt lat="44.71364" lon="5.05334">
        <ele>196.9</ele>
        <time>2012-03-17T15:40:09Z</time>
      </trkpt>
      <trkpt lat="44.71389" lon="5.05272">
        <ele>196.9</ele>
        <time>2012-03-17T15:40:34Z</time>
      </trkpt>
      <trkpt lat="44.71398" lon="5.05206">
        <ele>196.9</ele>
        <time>2012-03-17T15:40:49Z</time>
      </trkpt>
      <trkpt lat="44.71413" lon="5.05146">
        <ele>196.9</ele>
        <time>2012-03-17T15:41:06Z</time>
      </trkpt>
      <trkpt lat="44.71422" lon="5.0508">
        <ele>196.9</ele>
        <time>2012-03-17T15:41:22Z</time>
      </trkpt>
      <trkpt lat="44.71425" lon="5.05053">
        <ele>196.9</ele>
        <time>2012-03-17T15:41:27Z</time>
      </trkpt>
      <trkpt lat="44.71442" lon="5.04992">
        <ele>196.9</ele>
        <time>2012-03-17T15:41:38Z</time>
      </trkpt>
      <trkpt lat="44.71451" lon="5.04925">
        <ele>196.9</ele>
        <time>2012-03-17T15:41:49Z</time>
      </trkpt>
      <trkpt lat="44.71471" lon="5.04866">
        <ele>196.9</ele>
        <time>2012-03-17T15:41:59Z</time>
      </trkpt>
      <trkpt lat="44.71502" lon="5.04814">
        <ele>196.9</ele>
        <time>2012-03-17T15:42:10Z</time>
      </trkpt>
      <trkpt lat="44.71509" lon="5.04786">
        <ele>196.9</ele>
        <time>2012-03-17T15:42:16Z</time>
      </trkpt>
      <trkpt lat="44.71507" lon="5.04747">
        <ele>196.9</ele>
        <time>2012-03-17T15:42:23Z</time>
      </trkpt>
      <trkpt lat="44.71536" lon="5.04698">
        <ele>196.9</ele>
        <time>2012-03-17T15:42:33Z</time>
      </trkpt>
      <trkpt lat="44.71562" lon="5.04638">
        <ele>196.9</ele>
        <time>2012-03-17T15:42:42Z</time>
      </trkpt>
      <trkpt lat="44.71582" lon="5.04576">
        <ele>196.9</ele>
        <time>2012-03-17T15:42:51Z</time>
      </trkpt>
      <trkpt lat="44.71588" lon="5.04519">
        <ele>196.9</ele>
        <time>2012-03-17T15:43:00Z</time>
      </trkpt>
      <trkpt lat="44.71578" lon="5.04489">
        <ele>196.9</ele>
        <time>2012-03-17T15:43:06Z</time>
      </trkpt>
      <trkpt lat="44.716" lon="5.04428">
        <ele>196.9</ele>
        <time>2012-03-17T15:43:18Z</time>
      </trkpt>
      <trkpt lat="44.71628" lon="5.04371">
        <ele>196.9</ele>
        <time>2012-03-17T15:43:27Z</time>
      </trkpt>
      <trkpt lat="44.71656" lon="5.04316">
        <ele>196.9</ele>
        <time>2012-03-17T15:43:37Z</time>
      </trkpt>
      <trkpt lat="44.71688" lon="5.04271">
        <ele>196.9</ele>
        <time>2012-03-17T15:43:58Z</time>
      </trkpt>
      <trkpt lat="44.717" lon="5.04249">
        <ele>196.9</ele>
        <time>2012-03-17T15:44:02Z</time>
      </trkpt>
      <trkpt lat="44.71718" lon="5.04188">
        <ele>184.2</ele>
        <time>2012-03-17T15:44:10Z</time>
      </trkpt>
      <trkpt lat="44.7174" lon="5.04129">
        <ele>184.2</ele>
        <time>2012-03-17T15:44:19Z</time>
      </trkpt>
      <trkpt lat="44.71765" lon="5.04076">
        <ele>184.2</ele>
        <time>2012-03-17T15:44:29Z</time>
      </trkpt>
      <trkpt lat="44.71791" lon="5.04034">
        <ele>191.5</ele>
        <time>2012-03-17T15:44:36Z</time>
      </trkpt>
      <trkpt lat="44.71813" lon="5.04008">
        <ele>196.7</ele>
        <time>2012-03-17T15:44:41Z</time>
      </trkpt>
      <trkpt lat="44.71837" lon="5.03958">
        <ele>196.7</ele>
        <time>2012-03-17T15:44:49Z</time>
      </trkpt>
      <trkpt lat="44.71872" lon="5.03911">
        <ele>196.7</ele>
        <time>2012-03-17T15:44:58Z</time>
      </trkpt>
      <trkpt lat="44.71892" lon="5.03881">
        <ele>196.7</ele>
        <time>2012-03-17T15:45:04Z</time>
      </trkpt>
      <trkpt lat="44.71898" lon="5.03853">
        <ele>196.7</ele>
        <time>2012-03-17T15:45:08Z</time>
      </trkpt>
      <trkpt lat="44.71928" lon="5.03804">
        <ele>196.7</ele>
        <time>2012-03-17T15:45:17Z</time>
      </trkpt>
      <trkpt lat="44.71941" lon="5.03789">
        <ele>196.7</ele>
        <time>2012-03-17T15:45:21Z</time>
      </trkpt>
      <trkpt lat="44.71935" lon="5.03771">
        <ele>196.7</ele>
        <time>2012-03-17T15:45:25Z</time>
      </trkpt>
      <trkpt lat="44.7194" lon="5.03747">
        <ele>196.7</ele>
        <time>2012-03-17T15:45:30Z</time>
      </trkpt>
      <trkpt lat="44.71974" lon="5.03711">
        <ele>196.7</ele>
        <time>2012-03-17T15:45:39Z</time>
      </trkpt>
      <trkpt lat="44.71999" lon="5.03659">
        <ele>196.7</ele>
        <time>2012-03-17T15:45:48Z</time>
      </trkpt>
      <trkpt lat="44.72006" lon="5.0364">
        <ele>196.7</ele>
        <time>2012-03-17T15:45:51Z</time>
      </trkpt>
      <trkpt lat="44.72025" lon="5.03612">
        <ele>196.7</ele>
        <time>2012-03-17T15:45:56Z</time>
      </trkpt>
      <trkpt lat="44.72046" lon="5.03553">
        <ele>196.7</ele>
        <time>2012-03-17T15:46:06Z</time>
      </trkpt>
      <trkpt lat="44.72054" lon="5.03521">
        <ele>196.7</ele>
        <time>2012-03-17T15:46:12Z</time>
      </trkpt>
      <trkpt lat="44.72059" lon="5.03482">
        <ele>196.7</ele>
        <time>2012-03-17T15:46:18Z</time>
      </trkpt>
      <trkpt lat="44.7207" lon="5.03445">
        <ele>196.7</ele>
        <time>2012-03-17T15:46:24Z</time>
      </trkpt>
      <trkpt lat="44.72069" lon="5.03416">
        <ele>196.7</ele>
        <time>2012-03-17T15:46:33Z</time>
      </trkpt>
      <trkpt lat="44.72105" lon="5.03368">
        <ele>196.7</ele>
        <time>2012-03-17T15:46:47Z</time>
      </trkpt>
      <trkpt lat="44.72139" lon="5.03322">
        <ele>196.7</ele>
        <time>2012-03-17T15:46:58Z</time>
      </trkpt>
      <trkpt lat="44.7217" lon="5.03273">
        <ele>196.7</ele>
        <time>2012-03-17T15:47:12Z</time>
      </trkpt>
      <trkpt lat="44.72201" lon="5.03227">
        <ele>196.7</ele>
        <time>2012-03-17T15:47:26Z</time>
      </trkpt>
      <trkpt lat="44.72232" lon="5.0318">
        <ele>196.7</ele>
        <time>2012-03-17T15:47:36Z</time>
      </trkpt>
      <trkpt lat="44.72263" lon="5.03129">
        <ele>196.7</ele>
        <time>2012-03-17T15:47:47Z</time>
      </trkpt>
      <trkpt lat="44.72291" lon="5.0308">
        <ele>196.7</ele>
        <time>2012-03-17T15:47:55Z</time>
      </trkpt>
      <trkpt lat="44.72318" lon="5.03026">
        <ele>196.7</ele>
        <time>2012-03-17T15:48:04Z</time>
      </trkpt>
      <trkpt lat="44.72341" lon="5.0297">
        <ele>196.7</ele>
        <time>2012-03-17T15:48:13Z</time>
      </trkpt>
      <trkpt lat="44.72363" lon="5.0291">
        <ele>196.7</ele>
        <time>2012-03-17T15:48:24Z</time>
      </trkpt>
      <trkpt lat="44.72386" lon="5.02851">
        <ele>196.7</ele>
        <time>2012-03-17T15:48:34Z</time>
      </trkpt>
      <trkpt lat="44.72409" lon="5.02794">
        <ele>196.7</ele>
        <time>2012-03-17T15:48:43Z</time>
      </trkpt>
      <trkpt lat="44.7243" lon="5.02738">
        <ele>196.7</ele>
        <time>2012-03-17T15:48:52Z</time>
      </trkpt>
      <trkpt lat="44.72454" lon="5.02679">
        <ele>196.7</ele>
        <time>2012-03-17T15:49:01Z</time>
      </trkpt>
      <trkpt lat="44.72479" lon="5.02623">
        <ele>196.7</ele>
        <time>2012-03-17T15:49:10Z</time>
      </trkpt>
      <trkpt lat="44.72501" lon="5.02564">
        <ele>196.7</ele>
        <time>2012-03-17T15:49:20Z</time>
      </trkpt>
      <trkpt lat="44.72515" lon="5.02528">
        <ele>196.7</ele>
        <time>2012-03-17T15:49:27Z</time>
      </trkpt>
      <trkpt lat="44.72484" lon="5.02482">
        <ele>196.7</ele>
        <time>2012-03-17T15:49:38Z</time>
      </trkpt>
      <trkpt lat="44.7247" lon="5.02417">
        <ele>196.7</ele>
        <time>2012-03-17T15:49:49Z</time>
      </trkpt>
      <trkpt lat="44.72474" lon="5.02398">
        <ele>196.7</ele>
        <time>2012-03-17T15:49:57Z</time>
      </trkpt>
      <trkpt lat="44.72474" lon="5.02399">
        <ele>196.7</ele>
        <time>2012-03-17T15:50:29Z</time>
      </trkpt>
    </trkseg>
  </trk>
</gpx>